<?xml version="1.0" encoding="UTF-8" standalone="no" ?>
<gpx xmlns="http://www.topografix.com/GPX/1/1" xmlns:xsi="http://www.w3.org/2001/XMLSchema-instance" xsi:schemaLocation="http://www.topografix.com/GPX/1/1 http://www.topografix.com/GPX/1/1/gpx.xsd" version="1.1" creator="VisuGPX - https://www.visugpx.com">
  <metadata>
    <name>creuzier la plantade en boucle</name>
    <desc><![CDATA[Sortie en boucle creuzier la plantade par la route et retour par le GR .Circuit tres roulant qui fait quand meme mal aux pattes]]></desc>
  </metadata>
  <trk>
    <name><![CDATA[2013-09-13 12:55]]></name>
    <desc><![CDATA[<h1>OruxMaps</h1><br /><hr align="center" width="480" style="height: 2px; width: 517px"/><h2>Nom: 2013-09-13 12:55</h2><br /><p>Temps de départ: 09/13/2013 13:00</p><p>Temps d'arrivée: 09/13/2013 19:16</p><p>Distance: 88,5 km (06:15)</p><p>Temps déplacement: 04:58</p><p>Vitesse moyenne: 14,1 km/h</p><p>Vitesse moyenne: 17,8 km/h</p><p>Vitess Max.: 63 km/h</p><p>Altitude minimale: 271 m</p><p>Altitude maximale: 1019 m</p><p>Vitesse d'élévation: 730,3 m/h</p><p>Vitesse de descente: -1344,3 m/h</p><p>Gain Altitude: 2067 m</p><p>Perte Altitude: -2070 m</p><p>Temps d'élévation: 02:49</p><p>Temps de descente: 01:32</p><hr align="center" width="480" style="height: 2px; width: 517px"/>]]></desc>
    <trkseg>
      <trkpt lat="46.16409" lon="3.43316">
        <ele>344.55</ele>
        <time>2013-09-13T11:00:58Z</time>
      </trkpt>
      <trkpt lat="46.1634" lon="3.43267">
        <ele>341.17</ele>
        <time>2013-09-13T11:01:06Z</time>
      </trkpt>
      <trkpt lat="46.16269" lon="3.43239">
        <ele>337.64</ele>
        <time>2013-09-13T11:01:15Z</time>
      </trkpt>
      <trkpt lat="46.16193" lon="3.43218">
        <ele>344.72</ele>
        <time>2013-09-13T11:01:26Z</time>
      </trkpt>
      <trkpt lat="46.16118" lon="3.43196">
        <ele>341.86</ele>
        <time>2013-09-13T11:01:38Z</time>
      </trkpt>
      <trkpt lat="46.16044" lon="3.43177">
        <ele>337.8</ele>
        <time>2013-09-13T11:01:50Z</time>
      </trkpt>
      <trkpt lat="46.15969" lon="3.43188">
        <ele>336.74</ele>
        <time>2013-09-13T11:02:02Z</time>
      </trkpt>
      <trkpt lat="46.15897" lon="3.43207">
        <ele>337.48</ele>
        <time>2013-09-13T11:02:14Z</time>
      </trkpt>
      <trkpt lat="46.15822" lon="3.43188">
        <ele>336.79</ele>
        <time>2013-09-13T11:02:25Z</time>
      </trkpt>
      <trkpt lat="46.15756" lon="3.43138">
        <ele>336.56</ele>
        <time>2013-09-13T11:02:37Z</time>
      </trkpt>
      <trkpt lat="46.1568" lon="3.43136">
        <ele>337.53</ele>
        <time>2013-09-13T11:02:51Z</time>
      </trkpt>
      <trkpt lat="46.15609" lon="3.43149">
        <ele>337.55</ele>
        <time>2013-09-13T11:03:05Z</time>
      </trkpt>
      <trkpt lat="46.15537" lon="3.43164">
        <ele>337.79</ele>
        <time>2013-09-13T11:03:20Z</time>
      </trkpt>
      <trkpt lat="46.15466" lon="3.43145">
        <ele>337.72</ele>
        <time>2013-09-13T11:03:32Z</time>
      </trkpt>
      <trkpt lat="46.15409" lon="3.4308">
        <ele>337.18</ele>
        <time>2013-09-13T11:03:42Z</time>
      </trkpt>
      <trkpt lat="46.15348" lon="3.43022">
        <ele>336.22</ele>
        <time>2013-09-13T11:03:51Z</time>
      </trkpt>
      <trkpt lat="46.15281" lon="3.42982">
        <ele>334.86</ele>
        <time>2013-09-13T11:03:59Z</time>
      </trkpt>
      <trkpt lat="46.15204" lon="3.42954">
        <ele>334.58</ele>
        <time>2013-09-13T11:04:08Z</time>
      </trkpt>
      <trkpt lat="46.15126" lon="3.42952">
        <ele>334.55</ele>
        <time>2013-09-13T11:04:17Z</time>
      </trkpt>
      <trkpt lat="46.15045" lon="3.42947">
        <ele>334.3</ele>
        <time>2013-09-13T11:04:26Z</time>
      </trkpt>
      <trkpt lat="46.14966" lon="3.42943">
        <ele>333.61</ele>
        <time>2013-09-13T11:04:35Z</time>
      </trkpt>
      <trkpt lat="46.14891" lon="3.42941">
        <ele>333.56</ele>
        <time>2013-09-13T11:04:44Z</time>
      </trkpt>
      <trkpt lat="46.14817" lon="3.42975">
        <ele>332.1</ele>
        <time>2013-09-13T11:04:56Z</time>
      </trkpt>
      <trkpt lat="46.14746" lon="3.43027">
        <ele>328.21</ele>
        <time>2013-09-13T11:05:06Z</time>
      </trkpt>
      <trkpt lat="46.14683" lon="3.43095">
        <ele>326.72</ele>
        <time>2013-09-13T11:05:16Z</time>
      </trkpt>
      <trkpt lat="46.14626" lon="3.43164">
        <ele>326.56</ele>
        <time>2013-09-13T11:05:26Z</time>
      </trkpt>
      <trkpt lat="46.14569" lon="3.43241">
        <ele>323.69</ele>
        <time>2013-09-13T11:05:44Z</time>
      </trkpt>
      <trkpt lat="46.14529" lon="3.43336">
        <ele>320.29</ele>
        <time>2013-09-13T11:05:54Z</time>
      </trkpt>
      <trkpt lat="46.14487" lon="3.43426">
        <ele>318</ele>
        <time>2013-09-13T11:06:03Z</time>
      </trkpt>
      <trkpt lat="46.14449" lon="3.43518">
        <ele>316.82</ele>
        <time>2013-09-13T11:06:12Z</time>
      </trkpt>
      <trkpt lat="46.14416" lon="3.43619">
        <ele>315.42</ele>
        <time>2013-09-13T11:06:21Z</time>
      </trkpt>
      <trkpt lat="46.14394" lon="3.4373">
        <ele>314.2</ele>
        <time>2013-09-13T11:06:29Z</time>
      </trkpt>
      <trkpt lat="46.14369" lon="3.43842">
        <ele>311.96</ele>
        <time>2013-09-13T11:06:37Z</time>
      </trkpt>
      <trkpt lat="46.14349" lon="3.43947">
        <ele>311.61</ele>
        <time>2013-09-13T11:06:44Z</time>
      </trkpt>
      <trkpt lat="46.14325" lon="3.44054">
        <ele>311.74</ele>
        <time>2013-09-13T11:06:51Z</time>
      </trkpt>
      <trkpt lat="46.14291" lon="3.44155">
        <ele>310.76</ele>
        <time>2013-09-13T11:06:58Z</time>
      </trkpt>
      <trkpt lat="46.14244" lon="3.44245">
        <ele>310.14</ele>
        <time>2013-09-13T11:07:05Z</time>
      </trkpt>
      <trkpt lat="46.14198" lon="3.44333">
        <ele>309.03</ele>
        <time>2013-09-13T11:07:13Z</time>
      </trkpt>
      <trkpt lat="46.14155" lon="3.44419">
        <ele>306.11</ele>
        <time>2013-09-13T11:07:21Z</time>
      </trkpt>
      <trkpt lat="46.14108" lon="3.44499">
        <ele>302.21</ele>
        <time>2013-09-13T11:07:30Z</time>
      </trkpt>
      <trkpt lat="46.14063" lon="3.44582">
        <ele>296.77</ele>
        <time>2013-09-13T11:07:42Z</time>
      </trkpt>
      <trkpt lat="46.14009" lon="3.44653">
        <ele>289.87</ele>
        <time>2013-09-13T11:07:51Z</time>
      </trkpt>
      <trkpt lat="46.1394" lon="3.44705">
        <ele>286.22</ele>
        <time>2013-09-13T11:08:00Z</time>
      </trkpt>
      <trkpt lat="46.13872" lon="3.4475">
        <ele>283.67</ele>
        <time>2013-09-13T11:08:09Z</time>
      </trkpt>
      <trkpt lat="46.13805" lon="3.44797">
        <ele>281.95</ele>
        <time>2013-09-13T11:08:18Z</time>
      </trkpt>
      <trkpt lat="46.13743" lon="3.44851">
        <ele>278.98</ele>
        <time>2013-09-13T11:08:31Z</time>
      </trkpt>
      <trkpt lat="46.137" lon="3.44941">
        <ele>276.7</ele>
        <time>2013-09-13T11:08:43Z</time>
      </trkpt>
      <trkpt lat="46.13656" lon="3.45029">
        <ele>276.56</ele>
        <time>2013-09-13T11:08:55Z</time>
      </trkpt>
      <trkpt lat="46.1361" lon="3.45119">
        <ele>276.55</ele>
        <time>2013-09-13T11:09:06Z</time>
      </trkpt>
      <trkpt lat="46.13557" lon="3.45198">
        <ele>276.55</ele>
        <time>2013-09-13T11:09:18Z</time>
      </trkpt>
      <trkpt lat="46.13522" lon="3.45295">
        <ele>275.65</ele>
        <time>2013-09-13T11:09:31Z</time>
      </trkpt>
      <trkpt lat="46.1348" lon="3.45381">
        <ele>273.87</ele>
        <time>2013-09-13T11:09:44Z</time>
      </trkpt>
      <trkpt lat="46.13432" lon="3.45466">
        <ele>275.52</ele>
        <time>2013-09-13T11:09:56Z</time>
      </trkpt>
      <trkpt lat="46.13394" lon="3.45563">
        <ele>276.54</ele>
        <time>2013-09-13T11:10:12Z</time>
      </trkpt>
      <trkpt lat="46.13353" lon="3.45657">
        <ele>277.48</ele>
        <time>2013-09-13T11:10:23Z</time>
      </trkpt>
      <trkpt lat="46.13321" lon="3.45756">
        <ele>276.76</ele>
        <time>2013-09-13T11:10:54Z</time>
      </trkpt>
      <trkpt lat="46.13264" lon="3.4582">
        <ele>281.68</ele>
        <time>2013-09-13T11:11:10Z</time>
      </trkpt>
      <trkpt lat="46.13218" lon="3.45902">
        <ele>285.35</ele>
        <time>2013-09-13T11:11:24Z</time>
      </trkpt>
      <trkpt lat="46.13147" lon="3.45923">
        <ele>284.31</ele>
        <time>2013-09-13T11:11:51Z</time>
      </trkpt>
      <trkpt lat="46.13095" lon="3.45996">
        <ele>280.27</ele>
        <time>2013-09-13T11:12:10Z</time>
      </trkpt>
      <trkpt lat="46.13021" lon="3.46022">
        <ele>283.06</ele>
        <time>2013-09-13T11:12:27Z</time>
      </trkpt>
      <trkpt lat="46.12948" lon="3.46024">
        <ele>281.39</ele>
        <time>2013-09-13T11:12:41Z</time>
      </trkpt>
      <trkpt lat="46.12934" lon="3.46132">
        <ele>276.34</ele>
        <time>2013-09-13T11:12:55Z</time>
      </trkpt>
      <trkpt lat="46.1292" lon="3.46239">
        <ele>274.99</ele>
        <time>2013-09-13T11:13:07Z</time>
      </trkpt>
      <trkpt lat="46.12872" lon="3.46318">
        <ele>278.01</ele>
        <time>2013-09-13T11:13:19Z</time>
      </trkpt>
      <trkpt lat="46.12806" lon="3.46363">
        <ele>278.99</ele>
        <time>2013-09-13T11:13:36Z</time>
      </trkpt>
      <trkpt lat="46.12744" lon="3.46419">
        <ele>280.13</ele>
        <time>2013-09-13T11:13:57Z</time>
      </trkpt>
      <trkpt lat="46.12714" lon="3.46516">
        <ele>281.73</ele>
        <time>2013-09-13T11:14:20Z</time>
      </trkpt>
      <trkpt lat="46.12676" lon="3.46608">
        <ele>285.04</ele>
        <time>2013-09-13T11:14:42Z</time>
      </trkpt>
      <trkpt lat="46.12617" lon="3.4667">
        <ele>289.55</ele>
        <time>2013-09-13T11:15:06Z</time>
      </trkpt>
      <trkpt lat="46.12544" lon="3.4667">
        <ele>295</ele>
        <time>2013-09-13T11:15:35Z</time>
      </trkpt>
      <trkpt lat="46.12486" lon="3.46601">
        <ele>298.75</ele>
        <time>2013-09-13T11:15:59Z</time>
      </trkpt>
      <trkpt lat="46.1242" lon="3.46552">
        <ele>300.73</ele>
        <time>2013-09-13T11:16:20Z</time>
      </trkpt>
      <trkpt lat="46.12347" lon="3.46531">
        <ele>309.66</ele>
        <time>2013-09-13T11:16:39Z</time>
      </trkpt>
      <trkpt lat="46.12275" lon="3.46503">
        <ele>313.45</ele>
        <time>2013-09-13T11:16:59Z</time>
      </trkpt>
      <trkpt lat="46.12202" lon="3.46529">
        <ele>316.17</ele>
        <time>2013-09-13T11:17:19Z</time>
      </trkpt>
      <trkpt lat="46.12132" lon="3.46567">
        <ele>319.54</ele>
        <time>2013-09-13T11:17:38Z</time>
      </trkpt>
      <trkpt lat="46.12064" lon="3.46599">
        <ele>322.54</ele>
        <time>2013-09-13T11:17:58Z</time>
      </trkpt>
      <trkpt lat="46.11996" lon="3.46638">
        <ele>323.99</ele>
        <time>2013-09-13T11:18:19Z</time>
      </trkpt>
      <trkpt lat="46.11926" lon="3.4667">
        <ele>325.95</ele>
        <time>2013-09-13T11:18:40Z</time>
      </trkpt>
      <trkpt lat="46.11855" lon="3.46687">
        <ele>328.4</ele>
        <time>2013-09-13T11:19:00Z</time>
      </trkpt>
      <trkpt lat="46.11783" lon="3.46664">
        <ele>331.72</ele>
        <time>2013-09-13T11:19:24Z</time>
      </trkpt>
      <trkpt lat="46.1171" lon="3.46655">
        <ele>335.25</ele>
        <time>2013-09-13T11:19:49Z</time>
      </trkpt>
      <trkpt lat="46.11702" lon="3.4655">
        <ele>339.17</ele>
        <time>2013-09-13T11:20:12Z</time>
      </trkpt>
      <trkpt lat="46.11722" lon="3.46447">
        <ele>342.9</ele>
        <time>2013-09-13T11:20:37Z</time>
      </trkpt>
      <trkpt lat="46.11737" lon="3.46342">
        <ele>346.53</ele>
        <time>2013-09-13T11:21:00Z</time>
      </trkpt>
      <trkpt lat="46.11759" lon="3.46243">
        <ele>352.91</ele>
        <time>2013-09-13T11:21:23Z</time>
      </trkpt>
      <trkpt lat="46.11738" lon="3.46142">
        <ele>361.06</ele>
        <time>2013-09-13T11:21:50Z</time>
      </trkpt>
      <trkpt lat="46.11664" lon="3.46127">
        <ele>366.13</ele>
        <time>2013-09-13T11:22:11Z</time>
      </trkpt>
      <trkpt lat="46.1159" lon="3.46117">
        <ele>370</ele>
        <time>2013-09-13T11:22:30Z</time>
      </trkpt>
      <trkpt lat="46.11518" lon="3.46134">
        <ele>374.09</ele>
        <time>2013-09-13T11:22:49Z</time>
      </trkpt>
      <trkpt lat="46.11445" lon="3.46164">
        <ele>378.75</ele>
        <time>2013-09-13T11:23:09Z</time>
      </trkpt>
      <trkpt lat="46.11374" lon="3.46198">
        <ele>383.14</ele>
        <time>2013-09-13T11:23:30Z</time>
      </trkpt>
      <trkpt lat="46.11308" lon="3.46252">
        <ele>388.1</ele>
        <time>2013-09-13T11:23:53Z</time>
      </trkpt>
      <trkpt lat="46.11239" lon="3.46292">
        <ele>392.24</ele>
        <time>2013-09-13T11:24:13Z</time>
      </trkpt>
      <trkpt lat="46.11167" lon="3.46277">
        <ele>396.03</ele>
        <time>2013-09-13T11:24:33Z</time>
      </trkpt>
      <trkpt lat="46.11094" lon="3.46282">
        <ele>399.32</ele>
        <time>2013-09-13T11:24:53Z</time>
      </trkpt>
      <trkpt lat="46.11021" lon="3.46286">
        <ele>406.48</ele>
        <time>2013-09-13T11:25:11Z</time>
      </trkpt>
      <trkpt lat="46.10947" lon="3.4629">
        <ele>408.54</ele>
        <time>2013-09-13T11:25:29Z</time>
      </trkpt>
      <trkpt lat="46.10874" lon="3.46295">
        <ele>409.51</ele>
        <time>2013-09-13T11:25:44Z</time>
      </trkpt>
      <trkpt lat="46.10799" lon="3.4632">
        <ele>413.26</ele>
        <time>2013-09-13T11:25:59Z</time>
      </trkpt>
      <trkpt lat="46.10729" lon="3.46353">
        <ele>411.28</ele>
        <time>2013-09-13T11:26:11Z</time>
      </trkpt>
      <trkpt lat="46.10657" lon="3.46378">
        <ele>411.47</ele>
        <time>2013-09-13T11:26:24Z</time>
      </trkpt>
      <trkpt lat="46.10584" lon="3.46402">
        <ele>414.3</ele>
        <time>2013-09-13T11:26:39Z</time>
      </trkpt>
      <trkpt lat="46.10509" lon="3.46423">
        <ele>419.73</ele>
        <time>2013-09-13T11:26:55Z</time>
      </trkpt>
      <trkpt lat="46.10438" lon="3.4646">
        <ele>423.3</ele>
        <time>2013-09-13T11:27:11Z</time>
      </trkpt>
      <trkpt lat="46.10369" lon="3.4649">
        <ele>428.17</ele>
        <time>2013-09-13T11:27:26Z</time>
      </trkpt>
      <trkpt lat="46.10301" lon="3.4655">
        <ele>428.26</ele>
        <time>2013-09-13T11:27:39Z</time>
      </trkpt>
      <trkpt lat="46.10247" lon="3.46634">
        <ele>429.72</ele>
        <time>2013-09-13T11:27:49Z</time>
      </trkpt>
      <trkpt lat="46.10214" lon="3.46737">
        <ele>428.08</ele>
        <time>2013-09-13T11:27:59Z</time>
      </trkpt>
      <trkpt lat="46.10179" lon="3.4684">
        <ele>426.26</ele>
        <time>2013-09-13T11:28:08Z</time>
      </trkpt>
      <trkpt lat="46.10148" lon="3.46934">
        <ele>423.97</ele>
        <time>2013-09-13T11:28:16Z</time>
      </trkpt>
      <trkpt lat="46.1012" lon="3.47035">
        <ele>421.4</ele>
        <time>2013-09-13T11:28:25Z</time>
      </trkpt>
      <trkpt lat="46.10099" lon="3.47136">
        <ele>419.22</ele>
        <time>2013-09-13T11:28:34Z</time>
      </trkpt>
      <trkpt lat="46.10075" lon="3.47241">
        <ele>416.44</ele>
        <time>2013-09-13T11:28:43Z</time>
      </trkpt>
      <trkpt lat="46.10039" lon="3.4734">
        <ele>415.62</ele>
        <time>2013-09-13T11:28:52Z</time>
      </trkpt>
      <trkpt lat="46.10006" lon="3.47432">
        <ele>414.44</ele>
        <time>2013-09-13T11:29:00Z</time>
      </trkpt>
      <trkpt lat="46.09966" lon="3.47535">
        <ele>413.2</ele>
        <time>2013-09-13T11:29:08Z</time>
      </trkpt>
      <trkpt lat="46.09918" lon="3.47623">
        <ele>411.13</ele>
        <time>2013-09-13T11:29:15Z</time>
      </trkpt>
      <trkpt lat="46.09863" lon="3.47713">
        <ele>409.45</ele>
        <time>2013-09-13T11:29:22Z</time>
      </trkpt>
      <trkpt lat="46.09812" lon="3.47795">
        <ele>404.96</ele>
        <time>2013-09-13T11:29:29Z</time>
      </trkpt>
      <trkpt lat="46.09751" lon="3.47857">
        <ele>399.22</ele>
        <time>2013-09-13T11:29:37Z</time>
      </trkpt>
      <trkpt lat="46.09683" lon="3.47925">
        <ele>397.85</ele>
        <time>2013-09-13T11:29:46Z</time>
      </trkpt>
      <trkpt lat="46.09624" lon="3.47996">
        <ele>399.39</ele>
        <time>2013-09-13T11:29:53Z</time>
      </trkpt>
      <trkpt lat="46.09567" lon="3.48067">
        <ele>396.37</ele>
        <time>2013-09-13T11:30:01Z</time>
      </trkpt>
      <trkpt lat="46.09497" lon="3.48112">
        <ele>392.03</ele>
        <time>2013-09-13T11:30:14Z</time>
      </trkpt>
      <trkpt lat="46.09435" lon="3.48172">
        <ele>390.74</ele>
        <time>2013-09-13T11:30:28Z</time>
      </trkpt>
      <trkpt lat="46.09379" lon="3.48247">
        <ele>390.49</ele>
        <time>2013-09-13T11:30:42Z</time>
      </trkpt>
      <trkpt lat="46.09327" lon="3.48318">
        <ele>392.72</ele>
        <time>2013-09-13T11:30:58Z</time>
      </trkpt>
      <trkpt lat="46.09274" lon="3.48391">
        <ele>401.09</ele>
        <time>2013-09-13T11:31:20Z</time>
      </trkpt>
      <trkpt lat="46.0922" lon="3.48464">
        <ele>406.73</ele>
        <time>2013-09-13T11:31:42Z</time>
      </trkpt>
      <trkpt lat="46.09166" lon="3.48537">
        <ele>410.92</ele>
        <time>2013-09-13T11:32:00Z</time>
      </trkpt>
      <trkpt lat="46.09109" lon="3.48608">
        <ele>417.44</ele>
        <time>2013-09-13T11:32:25Z</time>
      </trkpt>
      <trkpt lat="46.09051" lon="3.48674">
        <ele>422.14</ele>
        <time>2013-09-13T11:32:47Z</time>
      </trkpt>
      <trkpt lat="46.0899" lon="3.48737">
        <ele>423.99</ele>
        <time>2013-09-13T11:32:58Z</time>
      </trkpt>
      <trkpt lat="46.08933" lon="3.48801">
        <ele>415.3</ele>
        <time>2013-09-13T11:33:08Z</time>
      </trkpt>
      <trkpt lat="46.08935" lon="3.48908">
        <ele>412.99</ele>
        <time>2013-09-13T11:33:34Z</time>
      </trkpt>
      <trkpt lat="46.08953" lon="3.49013">
        <ele>415.31</ele>
        <time>2013-09-13T11:33:52Z</time>
      </trkpt>
      <trkpt lat="46.08963" lon="3.49116">
        <ele>415.5</ele>
        <time>2013-09-13T11:34:09Z</time>
      </trkpt>
      <trkpt lat="46.08971" lon="3.49224">
        <ele>415.47</ele>
        <time>2013-09-13T11:34:26Z</time>
      </trkpt>
      <trkpt lat="46.09004" lon="3.49318">
        <ele>418.3</ele>
        <time>2013-09-13T11:34:43Z</time>
      </trkpt>
      <trkpt lat="46.09047" lon="3.49404">
        <ele>421.37</ele>
        <time>2013-09-13T11:35:01Z</time>
      </trkpt>
      <trkpt lat="46.09078" lon="3.49498">
        <ele>423.51</ele>
        <time>2013-09-13T11:35:20Z</time>
      </trkpt>
      <trkpt lat="46.09081" lon="3.49606">
        <ele>424.79</ele>
        <time>2013-09-13T11:35:42Z</time>
      </trkpt>
      <trkpt lat="46.09075" lon="3.49713">
        <ele>428.27</ele>
        <time>2013-09-13T11:36:06Z</time>
      </trkpt>
      <trkpt lat="46.09034" lon="3.49803">
        <ele>431.36</ele>
        <time>2013-09-13T11:36:31Z</time>
      </trkpt>
      <trkpt lat="46.08987" lon="3.49882">
        <ele>432.37</ele>
        <time>2013-09-13T11:36:59Z</time>
      </trkpt>
      <trkpt lat="46.08933" lon="3.49955">
        <ele>432.73</ele>
        <time>2013-09-13T11:37:15Z</time>
      </trkpt>
      <trkpt lat="46.08871" lon="3.50013">
        <ele>442.38</ele>
        <time>2013-09-13T11:37:32Z</time>
      </trkpt>
      <trkpt lat="46.0881" lon="3.50069">
        <ele>444.54</ele>
        <time>2013-09-13T11:37:52Z</time>
      </trkpt>
      <trkpt lat="46.08848" lon="3.50157">
        <ele>445</ele>
        <time>2013-09-13T11:38:26Z</time>
      </trkpt>
      <trkpt lat="46.08899" lon="3.50236">
        <ele>458.73</ele>
        <time>2013-09-13T11:38:46Z</time>
      </trkpt>
      <trkpt lat="46.08921" lon="3.50337">
        <ele>462.33</ele>
        <time>2013-09-13T11:39:05Z</time>
      </trkpt>
      <trkpt lat="46.08928" lon="3.50442">
        <ele>464.97</ele>
        <time>2013-09-13T11:39:24Z</time>
      </trkpt>
      <trkpt lat="46.08979" lon="3.50522">
        <ele>468.15</ele>
        <time>2013-09-13T11:39:45Z</time>
      </trkpt>
      <trkpt lat="46.09008" lon="3.50623">
        <ele>471.05</ele>
        <time>2013-09-13T11:40:07Z</time>
      </trkpt>
      <trkpt lat="46.09016" lon="3.50726">
        <ele>475.62</ele>
        <time>2013-09-13T11:40:26Z</time>
      </trkpt>
      <trkpt lat="46.0899" lon="3.50824">
        <ele>473.67</ele>
        <time>2013-09-13T11:40:45Z</time>
      </trkpt>
      <trkpt lat="46.08944" lon="3.50908">
        <ele>474.52</ele>
        <time>2013-09-13T11:41:07Z</time>
      </trkpt>
      <trkpt lat="46.08926" lon="3.51011">
        <ele>475.89</ele>
        <time>2013-09-13T11:41:22Z</time>
      </trkpt>
      <trkpt lat="46.08916" lon="3.51114">
        <ele>477.53</ele>
        <time>2013-09-13T11:41:41Z</time>
      </trkpt>
      <trkpt lat="46.08869" lon="3.51193">
        <ele>490.22</ele>
        <time>2013-09-13T11:42:14Z</time>
      </trkpt>
      <trkpt lat="46.08813" lon="3.51269">
        <ele>498.26</ele>
        <time>2013-09-13T11:42:34Z</time>
      </trkpt>
      <trkpt lat="46.0875" lon="3.51337">
        <ele>488.02</ele>
        <time>2013-09-13T11:42:42Z</time>
      </trkpt>
      <trkpt lat="46.08693" lon="3.51421">
        <ele>486.07</ele>
        <time>2013-09-13T11:43:06Z</time>
      </trkpt>
      <trkpt lat="46.08635" lon="3.51487">
        <ele>494.45</ele>
        <time>2013-09-13T11:43:25Z</time>
      </trkpt>
      <trkpt lat="46.08578" lon="3.51556">
        <ele>500.55</ele>
        <time>2013-09-13T11:43:38Z</time>
      </trkpt>
      <trkpt lat="46.08518" lon="3.51623">
        <ele>509.26</ele>
        <time>2013-09-13T11:43:53Z</time>
      </trkpt>
      <trkpt lat="46.0846" lon="3.51687">
        <ele>520.41</ele>
        <time>2013-09-13T11:44:06Z</time>
      </trkpt>
      <trkpt lat="46.08404" lon="3.5176">
        <ele>523.7</ele>
        <time>2013-09-13T11:44:20Z</time>
      </trkpt>
      <trkpt lat="46.08352" lon="3.51837">
        <ele>527.41</ele>
        <time>2013-09-13T11:44:36Z</time>
      </trkpt>
      <trkpt lat="46.08295" lon="3.51906">
        <ele>525.89</ele>
        <time>2013-09-13T11:44:53Z</time>
      </trkpt>
      <trkpt lat="46.08231" lon="3.51957">
        <ele>522.63</ele>
        <time>2013-09-13T11:45:10Z</time>
      </trkpt>
      <trkpt lat="46.08162" lon="3.51987">
        <ele>520.95</ele>
        <time>2013-09-13T11:45:27Z</time>
      </trkpt>
      <trkpt lat="46.08089" lon="3.52011">
        <ele>520.55</ele>
        <time>2013-09-13T11:45:44Z</time>
      </trkpt>
      <trkpt lat="46.08013" lon="3.51998">
        <ele>519.73</ele>
        <time>2013-09-13T11:45:57Z</time>
      </trkpt>
      <trkpt lat="46.07937" lon="3.52026">
        <ele>518.19</ele>
        <time>2013-09-13T11:46:10Z</time>
      </trkpt>
      <trkpt lat="46.07869" lon="3.52069">
        <ele>518.31</ele>
        <time>2013-09-13T11:46:20Z</time>
      </trkpt>
      <trkpt lat="46.078" lon="3.5212">
        <ele>518.62</ele>
        <time>2013-09-13T11:46:31Z</time>
      </trkpt>
      <trkpt lat="46.07742" lon="3.52185">
        <ele>516.65</ele>
        <time>2013-09-13T11:46:40Z</time>
      </trkpt>
      <trkpt lat="46.07684" lon="3.52249">
        <ele>515.66</ele>
        <time>2013-09-13T11:46:48Z</time>
      </trkpt>
      <trkpt lat="46.07621" lon="3.52316">
        <ele>515.35</ele>
        <time>2013-09-13T11:46:56Z</time>
      </trkpt>
      <trkpt lat="46.07557" lon="3.52382">
        <ele>515.97</ele>
        <time>2013-09-13T11:47:04Z</time>
      </trkpt>
      <trkpt lat="46.075" lon="3.52455">
        <ele>513.21</ele>
        <time>2013-09-13T11:47:14Z</time>
      </trkpt>
      <trkpt lat="46.07445" lon="3.52539">
        <ele>502.89</ele>
        <time>2013-09-13T11:47:26Z</time>
      </trkpt>
      <trkpt lat="46.07384" lon="3.52601">
        <ele>494.59</ele>
        <time>2013-09-13T11:47:37Z</time>
      </trkpt>
      <trkpt lat="46.07312" lon="3.5264">
        <ele>489.81</ele>
        <time>2013-09-13T11:47:50Z</time>
      </trkpt>
      <trkpt lat="46.07236" lon="3.52642">
        <ele>487.65</ele>
        <time>2013-09-13T11:48:02Z</time>
      </trkpt>
      <trkpt lat="46.07168" lon="3.52592">
        <ele>486.98</ele>
        <time>2013-09-13T11:48:14Z</time>
      </trkpt>
      <trkpt lat="46.07093" lon="3.52567">
        <ele>484.07</ele>
        <time>2013-09-13T11:48:27Z</time>
      </trkpt>
      <trkpt lat="46.07029" lon="3.52517">
        <ele>483.76</ele>
        <time>2013-09-13T11:48:38Z</time>
      </trkpt>
      <trkpt lat="46.06972" lon="3.52451">
        <ele>482.88</ele>
        <time>2013-09-13T11:48:49Z</time>
      </trkpt>
      <trkpt lat="46.06927" lon="3.52369">
        <ele>481.02</ele>
        <time>2013-09-13T11:49:00Z</time>
      </trkpt>
      <trkpt lat="46.06899" lon="3.52271">
        <ele>478.51</ele>
        <time>2013-09-13T11:49:11Z</time>
      </trkpt>
      <trkpt lat="46.06852" lon="3.52191">
        <ele>475.91</ele>
        <time>2013-09-13T11:49:22Z</time>
      </trkpt>
      <trkpt lat="46.06818" lon="3.52093">
        <ele>474.64</ele>
        <time>2013-09-13T11:49:34Z</time>
      </trkpt>
      <trkpt lat="46.06764" lon="3.52017">
        <ele>473.61</ele>
        <time>2013-09-13T11:49:47Z</time>
      </trkpt>
      <trkpt lat="46.06691" lon="3.5199">
        <ele>473.55</ele>
        <time>2013-09-13T11:50:00Z</time>
      </trkpt>
      <trkpt lat="46.06617" lon="3.51983">
        <ele>471.9</ele>
        <time>2013-09-13T11:50:17Z</time>
      </trkpt>
      <trkpt lat="46.06545" lon="3.51966">
        <ele>487.19</ele>
        <time>2013-09-13T11:50:33Z</time>
      </trkpt>
      <trkpt lat="46.06522" lon="3.51867">
        <ele>483.59</ele>
        <time>2013-09-13T11:50:45Z</time>
      </trkpt>
      <trkpt lat="46.06456" lon="3.51811">
        <ele>478.68</ele>
        <time>2013-09-13T11:50:56Z</time>
      </trkpt>
      <trkpt lat="46.06385" lon="3.51784">
        <ele>475.91</ele>
        <time>2013-09-13T11:51:07Z</time>
      </trkpt>
      <trkpt lat="46.06314" lon="3.51826">
        <ele>472.84</ele>
        <time>2013-09-13T11:51:23Z</time>
      </trkpt>
      <trkpt lat="46.06241" lon="3.51811">
        <ele>466.73</ele>
        <time>2013-09-13T11:51:38Z</time>
      </trkpt>
      <trkpt lat="46.06195" lon="3.51728">
        <ele>467.48</ele>
        <time>2013-09-13T11:51:59Z</time>
      </trkpt>
      <trkpt lat="46.06179" lon="3.51625">
        <ele>470.09</ele>
        <time>2013-09-13T11:52:23Z</time>
      </trkpt>
      <trkpt lat="46.0613" lon="3.51545">
        <ele>473.35</ele>
        <time>2013-09-13T11:52:46Z</time>
      </trkpt>
      <trkpt lat="46.06061" lon="3.51505">
        <ele>477.15</ele>
        <time>2013-09-13T11:53:11Z</time>
      </trkpt>
      <trkpt lat="46.05986" lon="3.51487">
        <ele>490.09</ele>
        <time>2013-09-13T11:53:43Z</time>
      </trkpt>
      <trkpt lat="46.05917" lon="3.51526">
        <ele>496.69</ele>
        <time>2013-09-13T11:53:56Z</time>
      </trkpt>
      <trkpt lat="46.05845" lon="3.51483">
        <ele>496.04</ele>
        <time>2013-09-13T11:54:11Z</time>
      </trkpt>
      <trkpt lat="46.05773" lon="3.51449">
        <ele>495.22</ele>
        <time>2013-09-13T11:54:24Z</time>
      </trkpt>
      <trkpt lat="46.05699" lon="3.5144">
        <ele>497.53</ele>
        <time>2013-09-13T11:54:44Z</time>
      </trkpt>
      <trkpt lat="46.05635" lon="3.51384">
        <ele>497.55</ele>
        <time>2013-09-13T11:55:07Z</time>
      </trkpt>
      <trkpt lat="46.05575" lon="3.51326">
        <ele>498.55</ele>
        <time>2013-09-13T11:55:29Z</time>
      </trkpt>
      <trkpt lat="46.05513" lon="3.51384">
        <ele>494.83</ele>
        <time>2013-09-13T11:55:44Z</time>
      </trkpt>
      <trkpt lat="46.05455" lon="3.51447">
        <ele>490.62</ele>
        <time>2013-09-13T11:55:53Z</time>
      </trkpt>
      <trkpt lat="46.0539" lon="3.51496">
        <ele>494.61</ele>
        <time>2013-09-13T11:56:02Z</time>
      </trkpt>
      <trkpt lat="46.05322" lon="3.51552">
        <ele>496.44</ele>
        <time>2013-09-13T11:56:12Z</time>
      </trkpt>
      <trkpt lat="46.0525" lon="3.51595">
        <ele>497.81</ele>
        <time>2013-09-13T11:56:23Z</time>
      </trkpt>
      <trkpt lat="46.05179" lon="3.51627">
        <ele>500.87</ele>
        <time>2013-09-13T11:56:36Z</time>
      </trkpt>
      <trkpt lat="46.05105" lon="3.51646">
        <ele>504.33</ele>
        <time>2013-09-13T11:56:54Z</time>
      </trkpt>
      <trkpt lat="46.05055" lon="3.51721">
        <ele>507.97</ele>
        <time>2013-09-13T11:57:12Z</time>
      </trkpt>
      <trkpt lat="46.05007" lon="3.51807">
        <ele>512.02</ele>
        <time>2013-09-13T11:57:28Z</time>
      </trkpt>
      <trkpt lat="46.04962" lon="3.51891">
        <ele>512.55</ele>
        <time>2013-09-13T11:57:44Z</time>
      </trkpt>
      <trkpt lat="46.0494" lon="3.51994">
        <ele>514.41</ele>
        <time>2013-09-13T11:58:01Z</time>
      </trkpt>
      <trkpt lat="46.04866" lon="3.52011">
        <ele>516.37</ele>
        <time>2013-09-13T11:58:21Z</time>
      </trkpt>
      <trkpt lat="46.04825" lon="3.51925">
        <ele>517.91</ele>
        <time>2013-09-13T11:58:38Z</time>
      </trkpt>
      <trkpt lat="46.04752" lon="3.51908">
        <ele>519.37</ele>
        <time>2013-09-13T11:58:54Z</time>
      </trkpt>
      <trkpt lat="46.04717" lon="3.51998">
        <ele>520.74</ele>
        <time>2013-09-13T11:59:07Z</time>
      </trkpt>
      <trkpt lat="46.04654" lon="3.52052">
        <ele>523.68</ele>
        <time>2013-09-13T11:59:20Z</time>
      </trkpt>
      <trkpt lat="46.04594" lon="3.52118">
        <ele>528.01</ele>
        <time>2013-09-13T11:59:34Z</time>
      </trkpt>
      <trkpt lat="46.04563" lon="3.52219">
        <ele>529.47</ele>
        <time>2013-09-13T11:59:48Z</time>
      </trkpt>
      <trkpt lat="46.04503" lon="3.52288">
        <ele>529.58</ele>
        <time>2013-09-13T12:00:02Z</time>
      </trkpt>
      <trkpt lat="46.04441" lon="3.5235">
        <ele>530.54</ele>
        <time>2013-09-13T12:00:16Z</time>
      </trkpt>
      <trkpt lat="46.04389" lon="3.52434">
        <ele>532.52</ele>
        <time>2013-09-13T12:00:29Z</time>
      </trkpt>
      <trkpt lat="46.04347" lon="3.52526">
        <ele>533.49</ele>
        <time>2013-09-13T12:00:39Z</time>
      </trkpt>
      <trkpt lat="46.04304" lon="3.52612">
        <ele>533.55</ele>
        <time>2013-09-13T12:00:50Z</time>
      </trkpt>
      <trkpt lat="46.04259" lon="3.52695">
        <ele>533.55</ele>
        <time>2013-09-13T12:01:03Z</time>
      </trkpt>
      <trkpt lat="46.04201" lon="3.52766">
        <ele>531.56</ele>
        <time>2013-09-13T12:01:19Z</time>
      </trkpt>
      <trkpt lat="46.04137" lon="3.52824">
        <ele>530.58</ele>
        <time>2013-09-13T12:01:32Z</time>
      </trkpt>
      <trkpt lat="46.04076" lon="3.52884">
        <ele>532.28</ele>
        <time>2013-09-13T12:01:49Z</time>
      </trkpt>
      <trkpt lat="46.0402" lon="3.52955">
        <ele>535.17</ele>
        <time>2013-09-13T12:02:06Z</time>
      </trkpt>
      <trkpt lat="46.04002" lon="3.53056">
        <ele>539.39</ele>
        <time>2013-09-13T12:02:26Z</time>
      </trkpt>
      <trkpt lat="46.03962" lon="3.53146">
        <ele>543.19</ele>
        <time>2013-09-13T12:02:45Z</time>
      </trkpt>
      <trkpt lat="46.0395" lon="3.53249">
        <ele>546.53</ele>
        <time>2013-09-13T12:03:00Z</time>
      </trkpt>
      <trkpt lat="46.03943" lon="3.53359">
        <ele>548.26</ele>
        <time>2013-09-13T12:03:16Z</time>
      </trkpt>
      <trkpt lat="46.03924" lon="3.53464">
        <ele>548.52</ele>
        <time>2013-09-13T12:03:31Z</time>
      </trkpt>
      <trkpt lat="46.03906" lon="3.53571">
        <ele>548.49</ele>
        <time>2013-09-13T12:03:46Z</time>
      </trkpt>
      <trkpt lat="46.03848" lon="3.53633">
        <ele>552.19</ele>
        <time>2013-09-13T12:04:01Z</time>
      </trkpt>
      <trkpt lat="46.03782" lon="3.53678">
        <ele>551.65</ele>
        <time>2013-09-13T12:04:24Z</time>
      </trkpt>
      <trkpt lat="46.0377" lon="3.53783">
        <ele>549.67</ele>
        <time>2013-09-13T12:04:43Z</time>
      </trkpt>
      <trkpt lat="46.03797" lon="3.53882">
        <ele>548.56</ele>
        <time>2013-09-13T12:05:02Z</time>
      </trkpt>
      <trkpt lat="46.03781" lon="3.53989">
        <ele>556.33</ele>
        <time>2013-09-13T12:05:19Z</time>
      </trkpt>
      <trkpt lat="46.03735" lon="3.54071">
        <ele>565.53</ele>
        <time>2013-09-13T12:05:34Z</time>
      </trkpt>
      <trkpt lat="46.0369" lon="3.54152">
        <ele>568.47</ele>
        <time>2013-09-13T12:05:50Z</time>
      </trkpt>
      <trkpt lat="46.03657" lon="3.54245">
        <ele>567</ele>
        <time>2013-09-13T12:06:09Z</time>
      </trkpt>
      <trkpt lat="46.03622" lon="3.54339">
        <ele>563.75</ele>
        <time>2013-09-13T12:06:27Z</time>
      </trkpt>
      <trkpt lat="46.03571" lon="3.54419">
        <ele>564.93</ele>
        <time>2013-09-13T12:06:51Z</time>
      </trkpt>
      <trkpt lat="46.03525" lon="3.54498">
        <ele>556.18</ele>
        <time>2013-09-13T12:07:00Z</time>
      </trkpt>
      <trkpt lat="46.03472" lon="3.54569">
        <ele>551.85</ele>
        <time>2013-09-13T12:07:12Z</time>
      </trkpt>
      <trkpt lat="46.03417" lon="3.54642">
        <ele>553.94</ele>
        <time>2013-09-13T12:07:26Z</time>
      </trkpt>
      <trkpt lat="46.03377" lon="3.5473">
        <ele>576.16</ele>
        <time>2013-09-13T12:07:34Z</time>
      </trkpt>
      <trkpt lat="46.03338" lon="3.54822">
        <ele>583.91</ele>
        <time>2013-09-13T12:07:44Z</time>
      </trkpt>
      <trkpt lat="46.03303" lon="3.54921">
        <ele>581.91</ele>
        <time>2013-09-13T12:07:58Z</time>
      </trkpt>
      <trkpt lat="46.03266" lon="3.55015">
        <ele>580.57</ele>
        <time>2013-09-13T12:08:13Z</time>
      </trkpt>
      <trkpt lat="46.03212" lon="3.5509">
        <ele>580.55</ele>
        <time>2013-09-13T12:08:26Z</time>
      </trkpt>
      <trkpt lat="46.03187" lon="3.55189">
        <ele>580.55</ele>
        <time>2013-09-13T12:08:41Z</time>
      </trkpt>
      <trkpt lat="46.03136" lon="3.55268">
        <ele>581.45</ele>
        <time>2013-09-13T12:08:54Z</time>
      </trkpt>
      <trkpt lat="46.03064" lon="3.55305">
        <ele>582.52</ele>
        <time>2013-09-13T12:09:06Z</time>
      </trkpt>
      <trkpt lat="46.02988" lon="3.55324">
        <ele>580.92</ele>
        <time>2013-09-13T12:09:18Z</time>
      </trkpt>
      <trkpt lat="46.0292" lon="3.55277">
        <ele>580.54</ele>
        <time>2013-09-13T12:09:32Z</time>
      </trkpt>
      <trkpt lat="46.02859" lon="3.55217">
        <ele>582.51</ele>
        <time>2013-09-13T12:09:48Z</time>
      </trkpt>
      <trkpt lat="46.02789" lon="3.55242">
        <ele>584.93</ele>
        <time>2013-09-13T12:10:02Z</time>
      </trkpt>
      <trkpt lat="46.02719" lon="3.55195">
        <ele>582.63</ele>
        <time>2013-09-13T12:10:19Z</time>
      </trkpt>
      <trkpt lat="46.02647" lon="3.55185">
        <ele>579.92</ele>
        <time>2013-09-13T12:10:33Z</time>
      </trkpt>
      <trkpt lat="46.02575" lon="3.55217">
        <ele>585.43</ele>
        <time>2013-09-13T12:10:47Z</time>
      </trkpt>
      <trkpt lat="46.02502" lon="3.55185">
        <ele>590.39</ele>
        <time>2013-09-13T12:10:59Z</time>
      </trkpt>
      <trkpt lat="46.02432" lon="3.55137">
        <ele>586.38</ele>
        <time>2013-09-13T12:11:08Z</time>
      </trkpt>
      <trkpt lat="46.02361" lon="3.55129">
        <ele>578.45</ele>
        <time>2013-09-13T12:11:20Z</time>
      </trkpt>
      <trkpt lat="46.02289" lon="3.55135">
        <ele>564.89</ele>
        <time>2013-09-13T12:11:36Z</time>
      </trkpt>
      <trkpt lat="46.0222" lon="3.55101">
        <ele>566.52</ele>
        <time>2013-09-13T12:11:46Z</time>
      </trkpt>
      <trkpt lat="46.02154" lon="3.55054">
        <ele>571.14</ele>
        <time>2013-09-13T12:11:57Z</time>
      </trkpt>
      <trkpt lat="46.02078" lon="3.55047">
        <ele>575.23</ele>
        <time>2013-09-13T12:12:12Z</time>
      </trkpt>
      <trkpt lat="46.02003" lon="3.55064">
        <ele>577.06</ele>
        <time>2013-09-13T12:12:34Z</time>
      </trkpt>
      <trkpt lat="46.01927" lon="3.55086">
        <ele>584.43</ele>
        <time>2013-09-13T12:12:48Z</time>
      </trkpt>
      <trkpt lat="46.0185" lon="3.55079">
        <ele>590.07</ele>
        <time>2013-09-13T12:13:00Z</time>
      </trkpt>
      <trkpt lat="46.01774" lon="3.55077">
        <ele>589.86</ele>
        <time>2013-09-13T12:13:13Z</time>
      </trkpt>
      <trkpt lat="46.01699" lon="3.55094">
        <ele>586.25</ele>
        <time>2013-09-13T12:13:25Z</time>
      </trkpt>
      <trkpt lat="46.01636" lon="3.55155">
        <ele>584.62</ele>
        <time>2013-09-13T12:13:36Z</time>
      </trkpt>
      <trkpt lat="46.01583" lon="3.55227">
        <ele>587.59</ele>
        <time>2013-09-13T12:13:44Z</time>
      </trkpt>
      <trkpt lat="46.01511" lon="3.55275">
        <ele>585.78</ele>
        <time>2013-09-13T12:13:55Z</time>
      </trkpt>
      <trkpt lat="46.01443" lon="3.55315">
        <ele>584.97</ele>
        <time>2013-09-13T12:14:04Z</time>
      </trkpt>
      <trkpt lat="46.01412" lon="3.55427">
        <ele>577.24</ele>
        <time>2013-09-13T12:14:11Z</time>
      </trkpt>
      <trkpt lat="46.01388" lon="3.5553">
        <ele>564.16</ele>
        <time>2013-09-13T12:14:18Z</time>
      </trkpt>
      <trkpt lat="46.01327" lon="3.55597">
        <ele>559.24</ele>
        <time>2013-09-13T12:14:27Z</time>
      </trkpt>
      <trkpt lat="46.01278" lon="3.55676">
        <ele>560.29</ele>
        <time>2013-09-13T12:14:37Z</time>
      </trkpt>
      <trkpt lat="46.01203" lon="3.55682">
        <ele>565.03</ele>
        <time>2013-09-13T12:14:50Z</time>
      </trkpt>
      <trkpt lat="46.01134" lon="3.55721">
        <ele>560.29</ele>
        <time>2013-09-13T12:15:04Z</time>
      </trkpt>
      <trkpt lat="46.01079" lon="3.55788">
        <ele>554.62</ele>
        <time>2013-09-13T12:15:22Z</time>
      </trkpt>
      <trkpt lat="46.01016" lon="3.55841">
        <ele>551.95</ele>
        <time>2013-09-13T12:15:32Z</time>
      </trkpt>
      <trkpt lat="46.00938" lon="3.5585">
        <ele>551.07</ele>
        <time>2013-09-13T12:15:42Z</time>
      </trkpt>
      <trkpt lat="46.00863" lon="3.55848">
        <ele>554.84</ele>
        <time>2013-09-13T12:15:52Z</time>
      </trkpt>
      <trkpt lat="46.00789" lon="3.55858">
        <ele>547.64</ele>
        <time>2013-09-13T12:16:05Z</time>
      </trkpt>
      <trkpt lat="46.0072" lon="3.55891">
        <ele>546.99</ele>
        <time>2013-09-13T12:16:27Z</time>
      </trkpt>
      <trkpt lat="46.00667" lon="3.55963">
        <ele>550.54</ele>
        <time>2013-09-13T12:16:48Z</time>
      </trkpt>
      <trkpt lat="46.00617" lon="3.56045">
        <ele>552.31</ele>
        <time>2013-09-13T12:17:09Z</time>
      </trkpt>
      <trkpt lat="46.00583" lon="3.56139">
        <ele>555.29</ele>
        <time>2013-09-13T12:17:29Z</time>
      </trkpt>
      <trkpt lat="46.00565" lon="3.5624">
        <ele>555.55</ele>
        <time>2013-09-13T12:17:46Z</time>
      </trkpt>
      <trkpt lat="46.00546" lon="3.56343">
        <ele>557.09</ele>
        <time>2013-09-13T12:18:03Z</time>
      </trkpt>
      <trkpt lat="46.00536" lon="3.56446">
        <ele>562.81</ele>
        <time>2013-09-13T12:18:28Z</time>
      </trkpt>
      <trkpt lat="46.00485" lon="3.5653">
        <ele>566.65</ele>
        <time>2013-09-13T12:18:43Z</time>
      </trkpt>
      <trkpt lat="46.00421" lon="3.56577">
        <ele>571.59</ele>
        <time>2013-09-13T12:19:01Z</time>
      </trkpt>
      <trkpt lat="46.00376" lon="3.56661">
        <ele>579.15</ele>
        <time>2013-09-13T12:19:19Z</time>
      </trkpt>
      <trkpt lat="46.00322" lon="3.56734">
        <ele>585.27</ele>
        <time>2013-09-13T12:19:36Z</time>
      </trkpt>
      <trkpt lat="46.00281" lon="3.5683">
        <ele>598.07</ele>
        <time>2013-09-13T12:19:54Z</time>
      </trkpt>
      <trkpt lat="46.00288" lon="3.56936">
        <ele>600.92</ele>
        <time>2013-09-13T12:20:04Z</time>
      </trkpt>
      <trkpt lat="46.00271" lon="3.57036">
        <ele>596.83</ele>
        <time>2013-09-13T12:20:22Z</time>
      </trkpt>
      <trkpt lat="46.00202" lon="3.57077">
        <ele>597.55</ele>
        <time>2013-09-13T12:20:44Z</time>
      </trkpt>
      <trkpt lat="46.00138" lon="3.57133">
        <ele>597.5</ele>
        <time>2013-09-13T12:21:07Z</time>
      </trkpt>
      <trkpt lat="46.00086" lon="3.57208">
        <ele>600.39</ele>
        <time>2013-09-13T12:21:27Z</time>
      </trkpt>
      <trkpt lat="46.0003" lon="3.57281">
        <ele>604.47</ele>
        <time>2013-09-13T12:21:47Z</time>
      </trkpt>
      <trkpt lat="45.99998" lon="3.57378">
        <ele>613.97</ele>
        <time>2013-09-13T12:22:04Z</time>
      </trkpt>
      <trkpt lat="45.99975" lon="3.57483">
        <ele>617.44</ele>
        <time>2013-09-13T12:22:17Z</time>
      </trkpt>
      <trkpt lat="45.99947" lon="3.57581">
        <ele>618.51</ele>
        <time>2013-09-13T12:22:32Z</time>
      </trkpt>
      <trkpt lat="45.99917" lon="3.5768">
        <ele>617.87</ele>
        <time>2013-09-13T12:22:51Z</time>
      </trkpt>
      <trkpt lat="45.99882" lon="3.57772">
        <ele>616.83</ele>
        <time>2013-09-13T12:23:08Z</time>
      </trkpt>
      <trkpt lat="45.99837" lon="3.57865">
        <ele>617.66</ele>
        <time>2013-09-13T12:23:22Z</time>
      </trkpt>
      <trkpt lat="45.99829" lon="3.57978">
        <ele>620.62</ele>
        <time>2013-09-13T12:23:31Z</time>
      </trkpt>
      <trkpt lat="45.9984" lon="3.58088">
        <ele>620.58</ele>
        <time>2013-09-13T12:23:40Z</time>
      </trkpt>
      <trkpt lat="45.99816" lon="3.58189">
        <ele>619.29</ele>
        <time>2013-09-13T12:23:54Z</time>
      </trkpt>
      <trkpt lat="45.99785" lon="3.58285">
        <ele>617.56</ele>
        <time>2013-09-13T12:24:13Z</time>
      </trkpt>
      <trkpt lat="45.99753" lon="3.58382">
        <ele>617.55</ele>
        <time>2013-09-13T12:24:33Z</time>
      </trkpt>
      <trkpt lat="45.99712" lon="3.5847">
        <ele>619.96</ele>
        <time>2013-09-13T12:24:54Z</time>
      </trkpt>
      <trkpt lat="45.99729" lon="3.58577">
        <ele>623.39</ele>
        <time>2013-09-13T12:25:14Z</time>
      </trkpt>
      <trkpt lat="45.99746" lon="3.58678">
        <ele>627</ele>
        <time>2013-09-13T12:25:33Z</time>
      </trkpt>
      <trkpt lat="45.99722" lon="3.58777">
        <ele>631.17</ele>
        <time>2013-09-13T12:25:55Z</time>
      </trkpt>
      <trkpt lat="45.99686" lon="3.58867">
        <ele>634.35</ele>
        <time>2013-09-13T12:26:18Z</time>
      </trkpt>
      <trkpt lat="45.99653" lon="3.58961">
        <ele>637.18</ele>
        <time>2013-09-13T12:26:42Z</time>
      </trkpt>
      <trkpt lat="45.99605" lon="3.59045">
        <ele>641.88</ele>
        <time>2013-09-13T12:27:04Z</time>
      </trkpt>
      <trkpt lat="45.99545" lon="3.59107">
        <ele>653.53</ele>
        <time>2013-09-13T12:27:19Z</time>
      </trkpt>
      <trkpt lat="45.99486" lon="3.59174">
        <ele>660.12</ele>
        <time>2013-09-13T12:27:30Z</time>
      </trkpt>
      <trkpt lat="45.9946" lon="3.59274">
        <ele>663.85</ele>
        <time>2013-09-13T12:27:39Z</time>
      </trkpt>
      <trkpt lat="45.99435" lon="3.59375">
        <ele>663.65</ele>
        <time>2013-09-13T12:27:49Z</time>
      </trkpt>
      <trkpt lat="45.99367" lon="3.59422">
        <ele>662.06</ele>
        <time>2013-09-13T12:28:05Z</time>
      </trkpt>
      <trkpt lat="45.99329" lon="3.59513">
        <ele>658.53</ele>
        <time>2013-09-13T12:28:24Z</time>
      </trkpt>
      <trkpt lat="45.99265" lon="3.59564">
        <ele>659.54</ele>
        <time>2013-09-13T12:28:44Z</time>
      </trkpt>
      <trkpt lat="45.99203" lon="3.59618">
        <ele>661.63</ele>
        <time>2013-09-13T12:29:02Z</time>
      </trkpt>
      <trkpt lat="45.9913" lon="3.59631">
        <ele>666.9</ele>
        <time>2013-09-13T12:29:19Z</time>
      </trkpt>
      <trkpt lat="45.99057" lon="3.59641">
        <ele>671.24</ele>
        <time>2013-09-13T12:29:35Z</time>
      </trkpt>
      <trkpt lat="45.98983" lon="3.59643">
        <ele>674.34</ele>
        <time>2013-09-13T12:29:51Z</time>
      </trkpt>
      <trkpt lat="45.9891" lon="3.59641">
        <ele>673.14</ele>
        <time>2013-09-13T12:30:06Z</time>
      </trkpt>
      <trkpt lat="45.98839" lon="3.59611">
        <ele>675.45</ele>
        <time>2013-09-13T12:30:21Z</time>
      </trkpt>
      <trkpt lat="45.98771" lon="3.59568">
        <ele>678.85</ele>
        <time>2013-09-13T12:30:37Z</time>
      </trkpt>
      <trkpt lat="45.987" lon="3.59538">
        <ele>680.23</ele>
        <time>2013-09-13T12:30:56Z</time>
      </trkpt>
      <trkpt lat="45.98627" lon="3.59543">
        <ele>686.48</ele>
        <time>2013-09-13T12:31:12Z</time>
      </trkpt>
      <trkpt lat="45.98551" lon="3.59545">
        <ele>690.09</ele>
        <time>2013-09-13T12:31:29Z</time>
      </trkpt>
      <trkpt lat="45.98475" lon="3.59547">
        <ele>691.53</ele>
        <time>2013-09-13T12:31:49Z</time>
      </trkpt>
      <trkpt lat="45.98402" lon="3.59549">
        <ele>691.99</ele>
        <time>2013-09-13T12:32:13Z</time>
      </trkpt>
      <trkpt lat="45.98332" lon="3.59579">
        <ele>695.48</ele>
        <time>2013-09-13T12:32:30Z</time>
      </trkpt>
      <trkpt lat="45.98264" lon="3.59622">
        <ele>698.1</ele>
        <time>2013-09-13T12:32:51Z</time>
      </trkpt>
      <trkpt lat="45.98198" lon="3.59676">
        <ele>704.16</ele>
        <time>2013-09-13T12:33:08Z</time>
      </trkpt>
      <trkpt lat="45.98136" lon="3.59729">
        <ele>706.16</ele>
        <time>2013-09-13T12:33:18Z</time>
      </trkpt>
      <trkpt lat="45.98088" lon="3.59813">
        <ele>706.52</ele>
        <time>2013-09-13T12:33:27Z</time>
      </trkpt>
      <trkpt lat="45.98036" lon="3.59888">
        <ele>705.68</ele>
        <time>2013-09-13T12:33:36Z</time>
      </trkpt>
      <trkpt lat="45.97968" lon="3.59942">
        <ele>705.57</ele>
        <time>2013-09-13T12:33:44Z</time>
      </trkpt>
      <trkpt lat="45.97907" lon="3.60004">
        <ele>704.22</ele>
        <time>2013-09-13T12:33:52Z</time>
      </trkpt>
      <trkpt lat="45.97849" lon="3.60073">
        <ele>698.33</ele>
        <time>2013-09-13T12:34:05Z</time>
      </trkpt>
      <trkpt lat="45.97797" lon="3.60143">
        <ele>705.12</ele>
        <time>2013-09-13T12:34:17Z</time>
      </trkpt>
      <trkpt lat="45.9774" lon="3.60212">
        <ele>706.03</ele>
        <time>2013-09-13T12:34:38Z</time>
      </trkpt>
      <trkpt lat="45.97681" lon="3.60279">
        <ele>703.59</ele>
        <time>2013-09-13T12:35:02Z</time>
      </trkpt>
      <trkpt lat="45.97617" lon="3.60332">
        <ele>703.38</ele>
        <time>2013-09-13T12:35:41Z</time>
      </trkpt>
      <trkpt lat="45.97546" lon="3.60347">
        <ele>703.55</ele>
        <time>2013-09-13T12:36:02Z</time>
      </trkpt>
      <trkpt lat="45.97473" lon="3.60354">
        <ele>705.31</ele>
        <time>2013-09-13T12:36:20Z</time>
      </trkpt>
      <trkpt lat="45.97403" lon="3.6039">
        <ele>707.62</ele>
        <time>2013-09-13T12:36:44Z</time>
      </trkpt>
      <trkpt lat="45.97343" lon="3.60448">
        <ele>711.94</ele>
        <time>2013-09-13T12:37:02Z</time>
      </trkpt>
      <trkpt lat="45.97274" lon="3.60495">
        <ele>721.03</ele>
        <time>2013-09-13T12:37:20Z</time>
      </trkpt>
      <trkpt lat="45.97201" lon="3.6051">
        <ele>727.78</ele>
        <time>2013-09-13T12:37:37Z</time>
      </trkpt>
      <trkpt lat="45.97137" lon="3.60463">
        <ele>728.86</ele>
        <time>2013-09-13T12:37:56Z</time>
      </trkpt>
      <trkpt lat="45.97067" lon="3.60422">
        <ele>727.12</ele>
        <time>2013-09-13T12:38:18Z</time>
      </trkpt>
      <trkpt lat="45.97009" lon="3.60485">
        <ele>727.55</ele>
        <time>2013-09-13T12:38:49Z</time>
      </trkpt>
      <trkpt lat="45.97003" lon="3.6059">
        <ele>728.55</ele>
        <time>2013-09-13T12:39:18Z</time>
      </trkpt>
      <trkpt lat="45.97026" lon="3.60691">
        <ele>733.09</ele>
        <time>2013-09-13T12:39:44Z</time>
      </trkpt>
      <trkpt lat="45.97062" lon="3.60781">
        <ele>738.19</ele>
        <time>2013-09-13T12:40:10Z</time>
      </trkpt>
      <trkpt lat="45.96983" lon="3.60761">
        <ele>746.49</ele>
        <time>2013-09-13T12:40:50Z</time>
      </trkpt>
      <trkpt lat="45.9692" lon="3.6071">
        <ele>752.5</ele>
        <time>2013-09-13T12:41:24Z</time>
      </trkpt>
      <trkpt lat="45.96886" lon="3.60613">
        <ele>757.79</ele>
        <time>2013-09-13T12:41:43Z</time>
      </trkpt>
      <trkpt lat="45.96819" lon="3.60568">
        <ele>763.64</ele>
        <time>2013-09-13T12:42:09Z</time>
      </trkpt>
      <trkpt lat="45.96813" lon="3.60671">
        <ele>770.49</ele>
        <time>2013-09-13T12:42:49Z</time>
      </trkpt>
      <trkpt lat="45.96811" lon="3.60776">
        <ele>770.56</ele>
        <time>2013-09-13T12:43:18Z</time>
      </trkpt>
      <trkpt lat="45.9681" lon="3.60882">
        <ele>771.89</ele>
        <time>2013-09-13T12:43:43Z</time>
      </trkpt>
      <trkpt lat="45.96772" lon="3.60974">
        <ele>775.22</ele>
        <time>2013-09-13T12:44:07Z</time>
      </trkpt>
      <trkpt lat="45.96746" lon="3.61073">
        <ele>786.01</ele>
        <time>2013-09-13T12:44:32Z</time>
      </trkpt>
      <trkpt lat="45.96713" lon="3.61165">
        <ele>791.53</ele>
        <time>2013-09-13T12:44:56Z</time>
      </trkpt>
      <trkpt lat="45.96649" lon="3.61221">
        <ele>794.76</ele>
        <time>2013-09-13T12:45:16Z</time>
      </trkpt>
      <trkpt lat="45.96583" lon="3.61266">
        <ele>801.78</ele>
        <time>2013-09-13T12:45:37Z</time>
      </trkpt>
      <trkpt lat="45.9652" lon="3.61319">
        <ele>807.62</ele>
        <time>2013-09-13T12:46:00Z</time>
      </trkpt>
      <trkpt lat="45.96464" lon="3.61386">
        <ele>812.45</ele>
        <time>2013-09-13T12:46:21Z</time>
      </trkpt>
      <trkpt lat="45.96392" lon="3.61403">
        <ele>818.24</ele>
        <time>2013-09-13T12:46:48Z</time>
      </trkpt>
      <trkpt lat="45.96319" lon="3.61409">
        <ele>821.93</ele>
        <time>2013-09-13T12:47:11Z</time>
      </trkpt>
      <trkpt lat="45.96278" lon="3.61497">
        <ele>828.81</ele>
        <time>2013-09-13T12:47:39Z</time>
      </trkpt>
      <trkpt lat="45.96261" lon="3.616">
        <ele>835.21</ele>
        <time>2013-09-13T12:48:08Z</time>
      </trkpt>
      <trkpt lat="45.9624" lon="3.61699">
        <ele>840.26</ele>
        <time>2013-09-13T12:48:35Z</time>
      </trkpt>
      <trkpt lat="45.96215" lon="3.618">
        <ele>840.24</ele>
        <time>2013-09-13T12:49:05Z</time>
      </trkpt>
      <trkpt lat="45.9617" lon="3.61886">
        <ele>844.76</ele>
        <time>2013-09-13T12:49:31Z</time>
      </trkpt>
      <trkpt lat="45.96178" lon="3.61989">
        <ele>854.52</ele>
        <time>2013-09-13T12:50:00Z</time>
      </trkpt>
      <trkpt lat="45.96159" lon="3.6209">
        <ele>865.55</ele>
        <time>2013-09-13T12:50:27Z</time>
      </trkpt>
      <trkpt lat="45.96187" lon="3.62186">
        <ele>874.44</ele>
        <time>2013-09-13T12:51:04Z</time>
      </trkpt>
      <trkpt lat="45.96126" lon="3.62246">
        <ele>878.87</ele>
        <time>2013-09-13T12:51:37Z</time>
      </trkpt>
      <trkpt lat="45.96052" lon="3.62274">
        <ele>883.86</ele>
        <time>2013-09-13T12:51:54Z</time>
      </trkpt>
      <trkpt lat="45.95992" lon="3.62334">
        <ele>891.46</ele>
        <time>2013-09-13T12:52:13Z</time>
      </trkpt>
      <trkpt lat="45.96013" lon="3.62439">
        <ele>903.27</ele>
        <time>2013-09-13T12:52:42Z</time>
      </trkpt>
      <trkpt lat="45.96006" lon="3.62545">
        <ele>916.35</ele>
        <time>2013-09-13T12:52:58Z</time>
      </trkpt>
      <trkpt lat="45.95986" lon="3.62648">
        <ele>912.67</ele>
        <time>2013-09-13T12:53:15Z</time>
      </trkpt>
      <trkpt lat="45.96023" lon="3.62744">
        <ele>911.57</ele>
        <time>2013-09-13T12:53:29Z</time>
      </trkpt>
      <trkpt lat="45.96067" lon="3.62836">
        <ele>911.8</ele>
        <time>2013-09-13T12:53:38Z</time>
      </trkpt>
      <trkpt lat="45.96065" lon="3.62942">
        <ele>915.13</ele>
        <time>2013-09-13T12:53:49Z</time>
      </trkpt>
      <trkpt lat="45.96003" lon="3.63002">
        <ele>904.8</ele>
        <time>2013-09-13T12:56:06Z</time>
      </trkpt>
      <trkpt lat="45.95959" lon="3.63085">
        <ele>892.1</ele>
        <time>2013-09-13T12:56:23Z</time>
      </trkpt>
      <trkpt lat="45.96001" lon="3.63175">
        <ele>891.2</ele>
        <time>2013-09-13T12:56:42Z</time>
      </trkpt>
      <trkpt lat="45.96075" lon="3.6319">
        <ele>890.84</ele>
        <time>2013-09-13T12:56:51Z</time>
      </trkpt>
      <trkpt lat="45.96131" lon="3.63261">
        <ele>886.52</ele>
        <time>2013-09-13T12:57:01Z</time>
      </trkpt>
      <trkpt lat="45.96174" lon="3.63349">
        <ele>879.66</ele>
        <time>2013-09-13T12:57:19Z</time>
      </trkpt>
      <trkpt lat="45.96232" lon="3.63431">
        <ele>880.38</ele>
        <time>2013-09-13T12:57:53Z</time>
      </trkpt>
      <trkpt lat="45.96282" lon="3.6351">
        <ele>881.55</ele>
        <time>2013-09-13T12:58:15Z</time>
      </trkpt>
      <trkpt lat="45.96323" lon="3.636">
        <ele>882.13</ele>
        <time>2013-09-13T12:58:43Z</time>
      </trkpt>
      <trkpt lat="45.96375" lon="3.63688">
        <ele>883.55</ele>
        <time>2013-09-13T12:59:15Z</time>
      </trkpt>
      <trkpt lat="45.96439" lon="3.63763">
        <ele>885.79</ele>
        <time>2013-09-13T12:59:48Z</time>
      </trkpt>
      <trkpt lat="45.96493" lon="3.63834">
        <ele>890.3</ele>
        <time>2013-09-13T13:00:24Z</time>
      </trkpt>
      <trkpt lat="45.96549" lon="3.63901">
        <ele>894.41</ele>
        <time>2013-09-13T13:01:06Z</time>
      </trkpt>
      <trkpt lat="45.96607" lon="3.63963">
        <ele>902.75</ele>
        <time>2013-09-13T13:01:50Z</time>
      </trkpt>
      <trkpt lat="45.96638" lon="3.64057">
        <ele>912.04</ele>
        <time>2013-09-13T13:02:32Z</time>
      </trkpt>
      <trkpt lat="45.96663" lon="3.64158">
        <ele>931.13</ele>
        <time>2013-09-13T13:05:01Z</time>
      </trkpt>
      <trkpt lat="45.96719" lon="3.64227">
        <ele>930.86</ele>
        <time>2013-09-13T13:05:16Z</time>
      </trkpt>
      <trkpt lat="45.96719" lon="3.64338">
        <ele>939.29</ele>
        <time>2013-09-13T13:05:28Z</time>
      </trkpt>
      <trkpt lat="45.96691" lon="3.64439">
        <ele>935.16</ele>
        <time>2013-09-13T13:05:38Z</time>
      </trkpt>
      <trkpt lat="45.96668" lon="3.6454">
        <ele>933.92</ele>
        <time>2013-09-13T13:05:52Z</time>
      </trkpt>
      <trkpt lat="45.96638" lon="3.64637">
        <ele>933.41</ele>
        <time>2013-09-13T13:06:04Z</time>
      </trkpt>
      <trkpt lat="45.96622" lon="3.64738">
        <ele>933.6</ele>
        <time>2013-09-13T13:06:22Z</time>
      </trkpt>
      <trkpt lat="45.96592" lon="3.64834">
        <ele>931.36</ele>
        <time>2013-09-13T13:06:35Z</time>
      </trkpt>
      <trkpt lat="45.96551" lon="3.64924">
        <ele>925.64</ele>
        <time>2013-09-13T13:06:53Z</time>
      </trkpt>
      <trkpt lat="45.96541" lon="3.65029">
        <ele>924.79</ele>
        <time>2013-09-13T13:07:19Z</time>
      </trkpt>
      <trkpt lat="45.9656" lon="3.65132">
        <ele>923.63</ele>
        <time>2013-09-13T13:07:35Z</time>
      </trkpt>
      <trkpt lat="45.96573" lon="3.65242">
        <ele>919.6</ele>
        <time>2013-09-13T13:07:49Z</time>
      </trkpt>
      <trkpt lat="45.96579" lon="3.65349">
        <ele>920.98</ele>
        <time>2013-09-13T13:08:02Z</time>
      </trkpt>
      <trkpt lat="45.96606" lon="3.65446">
        <ele>924.65</ele>
        <time>2013-09-13T13:08:19Z</time>
      </trkpt>
      <trkpt lat="45.96611" lon="3.65559">
        <ele>923.63</ele>
        <time>2013-09-13T13:10:03Z</time>
      </trkpt>
      <trkpt lat="45.96629" lon="3.65669">
        <ele>928.46</ele>
        <time>2013-09-13T13:10:37Z</time>
      </trkpt>
      <trkpt lat="45.96585" lon="3.65752">
        <ele>931.47</ele>
        <time>2013-09-13T13:11:00Z</time>
      </trkpt>
      <trkpt lat="45.96539" lon="3.65836">
        <ele>933.49</ele>
        <time>2013-09-13T13:11:22Z</time>
      </trkpt>
      <trkpt lat="45.96497" lon="3.65926">
        <ele>933.55</ele>
        <time>2013-09-13T13:11:42Z</time>
      </trkpt>
      <trkpt lat="45.96509" lon="3.66029">
        <ele>934.81</ele>
        <time>2013-09-13T13:13:13Z</time>
      </trkpt>
      <trkpt lat="45.96537" lon="3.66126">
        <ele>940.09</ele>
        <time>2013-09-13T13:13:36Z</time>
      </trkpt>
      <trkpt lat="45.96553" lon="3.66229">
        <ele>947.61</ele>
        <time>2013-09-13T13:14:07Z</time>
      </trkpt>
      <trkpt lat="45.9658" lon="3.66325">
        <ele>954.26</ele>
        <time>2013-09-13T13:14:41Z</time>
      </trkpt>
      <trkpt lat="45.96612" lon="3.6642">
        <ele>963.13</ele>
        <time>2013-09-13T13:15:25Z</time>
      </trkpt>
      <trkpt lat="45.96637" lon="3.66518">
        <ele>971.65</ele>
        <time>2013-09-13T13:16:18Z</time>
      </trkpt>
      <trkpt lat="45.96632" lon="3.66624">
        <ele>979.1</ele>
        <time>2013-09-13T13:17:56Z</time>
      </trkpt>
      <trkpt lat="45.9664" lon="3.66727">
        <ele>985</ele>
        <time>2013-09-13T13:18:26Z</time>
      </trkpt>
      <trkpt lat="45.96639" lon="3.66834">
        <ele>989.9</ele>
        <time>2013-09-13T13:18:55Z</time>
      </trkpt>
      <trkpt lat="45.96631" lon="3.66937">
        <ele>996.64</ele>
        <time>2013-09-13T13:19:12Z</time>
      </trkpt>
      <trkpt lat="45.96654" lon="3.67038">
        <ele>1000.51</ele>
        <time>2013-09-13T13:19:29Z</time>
      </trkpt>
      <trkpt lat="45.96686" lon="3.67136">
        <ele>1003.47</ele>
        <time>2013-09-13T13:19:45Z</time>
      </trkpt>
      <trkpt lat="45.96733" lon="3.67224">
        <ele>1007.07</ele>
        <time>2013-09-13T13:20:00Z</time>
      </trkpt>
      <trkpt lat="45.96782" lon="3.6731">
        <ele>1012.55</ele>
        <time>2013-09-13T13:20:15Z</time>
      </trkpt>
      <trkpt lat="45.96834" lon="3.67385">
        <ele>1016.55</ele>
        <time>2013-09-13T13:20:38Z</time>
      </trkpt>
      <trkpt lat="45.9687" lon="3.6748">
        <ele>1019.81</ele>
        <time>2013-09-13T13:20:51Z</time>
      </trkpt>
      <trkpt lat="45.96862" lon="3.67583">
        <ele>1018.16</ele>
        <time>2013-09-13T13:21:00Z</time>
      </trkpt>
      <trkpt lat="45.9682" lon="3.67675">
        <ele>1006.07</ele>
        <time>2013-09-13T13:21:58Z</time>
      </trkpt>
      <trkpt lat="45.96753" lon="3.67722">
        <ele>992.3</ele>
        <time>2013-09-13T13:22:11Z</time>
      </trkpt>
      <trkpt lat="45.96716" lon="3.67817">
        <ele>992.42</ele>
        <time>2013-09-13T13:22:18Z</time>
      </trkpt>
      <trkpt lat="45.96691" lon="3.67922">
        <ele>995.02</ele>
        <time>2013-09-13T13:22:28Z</time>
      </trkpt>
      <trkpt lat="45.96707" lon="3.68029">
        <ele>995.47</ele>
        <time>2013-09-13T13:22:40Z</time>
      </trkpt>
      <trkpt lat="45.96674" lon="3.6813">
        <ele>991.35</ele>
        <time>2013-09-13T13:22:51Z</time>
      </trkpt>
      <trkpt lat="45.96646" lon="3.68237">
        <ele>979.59</ele>
        <time>2013-09-13T13:23:01Z</time>
      </trkpt>
      <trkpt lat="45.96596" lon="3.68325">
        <ele>976.53</ele>
        <time>2013-09-13T13:23:10Z</time>
      </trkpt>
      <trkpt lat="45.96524" lon="3.68351">
        <ele>969.68</ele>
        <time>2013-09-13T13:23:40Z</time>
      </trkpt>
      <trkpt lat="45.96449" lon="3.68349">
        <ele>952.39</ele>
        <time>2013-09-13T13:23:54Z</time>
      </trkpt>
      <trkpt lat="45.96387" lon="3.68405">
        <ele>946.24</ele>
        <time>2013-09-13T13:24:07Z</time>
      </trkpt>
      <trkpt lat="45.96322" lon="3.68463">
        <ele>941.18</ele>
        <time>2013-09-13T13:24:22Z</time>
      </trkpt>
      <trkpt lat="45.96254" lon="3.68501">
        <ele>940.24</ele>
        <time>2013-09-13T13:24:41Z</time>
      </trkpt>
      <trkpt lat="45.96244" lon="3.68606">
        <ele>941.77</ele>
        <time>2013-09-13T13:25:06Z</time>
      </trkpt>
      <trkpt lat="45.9624" lon="3.68718">
        <ele>945.77</ele>
        <time>2013-09-13T13:25:39Z</time>
      </trkpt>
      <trkpt lat="45.96243" lon="3.68823">
        <ele>948.09</ele>
        <time>2013-09-13T13:26:11Z</time>
      </trkpt>
      <trkpt lat="45.96239" lon="3.6893">
        <ele>950.53</ele>
        <time>2013-09-13T13:26:42Z</time>
      </trkpt>
      <trkpt lat="45.96223" lon="3.69042">
        <ele>953.42</ele>
        <time>2013-09-13T13:27:26Z</time>
      </trkpt>
      <trkpt lat="45.96174" lon="3.69119">
        <ele>957.37</ele>
        <time>2013-09-13T13:28:08Z</time>
      </trkpt>
      <trkpt lat="45.96174" lon="3.69224">
        <ele>958.53</ele>
        <time>2013-09-13T13:28:41Z</time>
      </trkpt>
      <trkpt lat="45.96215" lon="3.69312">
        <ele>963.05</ele>
        <time>2013-09-13T13:28:55Z</time>
      </trkpt>
      <trkpt lat="45.96249" lon="3.69405">
        <ele>968.9</ele>
        <time>2013-09-13T13:29:06Z</time>
      </trkpt>
      <trkpt lat="45.96293" lon="3.69493">
        <ele>966.73</ele>
        <time>2013-09-13T13:30:05Z</time>
      </trkpt>
      <trkpt lat="45.96367" lon="3.6951">
        <ele>964.79</ele>
        <time>2013-09-13T13:30:18Z</time>
      </trkpt>
      <trkpt lat="45.96437" lon="3.69478">
        <ele>966.74</ele>
        <time>2013-09-13T13:30:26Z</time>
      </trkpt>
      <trkpt lat="45.96508" lon="3.69523">
        <ele>958.92</ele>
        <time>2013-09-13T13:30:35Z</time>
      </trkpt>
      <trkpt lat="45.96571" lon="3.69585">
        <ele>949.62</ele>
        <time>2013-09-13T13:30:43Z</time>
      </trkpt>
      <trkpt lat="45.96649" lon="3.69593">
        <ele>946.86</ele>
        <time>2013-09-13T13:30:51Z</time>
      </trkpt>
      <trkpt lat="45.96708" lon="3.69668">
        <ele>942.91</ele>
        <time>2013-09-13T13:30:59Z</time>
      </trkpt>
      <trkpt lat="45.96763" lon="3.69744">
        <ele>935.06</ele>
        <time>2013-09-13T13:31:07Z</time>
      </trkpt>
      <trkpt lat="45.96825" lon="3.69806">
        <ele>929.49</ele>
        <time>2013-09-13T13:31:15Z</time>
      </trkpt>
      <trkpt lat="45.96886" lon="3.69862">
        <ele>926.41</ele>
        <time>2013-09-13T13:31:22Z</time>
      </trkpt>
      <trkpt lat="45.9695" lon="3.69917">
        <ele>923.37</ele>
        <time>2013-09-13T13:31:28Z</time>
      </trkpt>
      <trkpt lat="45.97012" lon="3.69977">
        <ele>914.89</ele>
        <time>2013-09-13T13:31:37Z</time>
      </trkpt>
      <trkpt lat="45.97014" lon="3.70091">
        <ele>898.49</ele>
        <time>2013-09-13T13:31:58Z</time>
      </trkpt>
      <trkpt lat="45.97083" lon="3.70132">
        <ele>892.54</ele>
        <time>2013-09-13T13:32:08Z</time>
      </trkpt>
      <trkpt lat="45.97149" lon="3.70188">
        <ele>888.87</ele>
        <time>2013-09-13T13:32:15Z</time>
      </trkpt>
      <trkpt lat="45.97225" lon="3.7022">
        <ele>884.16</ele>
        <time>2013-09-13T13:32:22Z</time>
      </trkpt>
      <trkpt lat="45.97306" lon="3.70226">
        <ele>881.56</ele>
        <time>2013-09-13T13:32:30Z</time>
      </trkpt>
      <trkpt lat="45.97383" lon="3.70235">
        <ele>874.38</ele>
        <time>2013-09-13T13:32:40Z</time>
      </trkpt>
      <trkpt lat="45.97454" lon="3.70205">
        <ele>870.77</ele>
        <time>2013-09-13T13:32:51Z</time>
      </trkpt>
      <trkpt lat="45.97526" lon="3.7019">
        <ele>869.36</ele>
        <time>2013-09-13T13:33:02Z</time>
      </trkpt>
      <trkpt lat="45.97599" lon="3.70156">
        <ele>857.07</ele>
        <time>2013-09-13T13:35:08Z</time>
      </trkpt>
      <trkpt lat="45.97654" lon="3.70085">
        <ele>853.36</ele>
        <time>2013-09-13T13:35:16Z</time>
      </trkpt>
      <trkpt lat="45.97703" lon="3.70003">
        <ele>851.85</ele>
        <time>2013-09-13T13:35:25Z</time>
      </trkpt>
      <trkpt lat="45.97771" lon="3.69941">
        <ele>849.45</ele>
        <time>2013-09-13T13:35:34Z</time>
      </trkpt>
      <trkpt lat="45.97834" lon="3.69879">
        <ele>845.63</ele>
        <time>2013-09-13T13:35:43Z</time>
      </trkpt>
      <trkpt lat="45.97841" lon="3.69776">
        <ele>845.54</ele>
        <time>2013-09-13T13:35:57Z</time>
      </trkpt>
      <trkpt lat="45.97908" lon="3.69739">
        <ele>841.15</ele>
        <time>2013-09-13T13:36:08Z</time>
      </trkpt>
      <trkpt lat="45.97981" lon="3.6978">
        <ele>823.28</ele>
        <time>2013-09-13T13:36:16Z</time>
      </trkpt>
      <trkpt lat="45.98037" lon="3.69851">
        <ele>812.26</ele>
        <time>2013-09-13T13:36:24Z</time>
      </trkpt>
      <trkpt lat="45.98083" lon="3.69935">
        <ele>806.19</ele>
        <time>2013-09-13T13:36:32Z</time>
      </trkpt>
      <trkpt lat="45.98118" lon="3.70027">
        <ele>797.24</ele>
        <time>2013-09-13T13:36:44Z</time>
      </trkpt>
      <trkpt lat="45.98186" lon="3.6999">
        <ele>790.42</ele>
        <time>2013-09-13T13:37:01Z</time>
      </trkpt>
      <trkpt lat="45.98205" lon="3.69883">
        <ele>788.86</ele>
        <time>2013-09-13T13:37:16Z</time>
      </trkpt>
      <trkpt lat="45.98234" lon="3.6978">
        <ele>785.66</ele>
        <time>2013-09-13T13:37:31Z</time>
      </trkpt>
      <trkpt lat="45.98298" lon="3.69722">
        <ele>773.06</ele>
        <time>2013-09-13T13:37:48Z</time>
      </trkpt>
      <trkpt lat="45.98351" lon="3.69651">
        <ele>772.55</ele>
        <time>2013-09-13T13:38:14Z</time>
      </trkpt>
      <trkpt lat="45.98419" lon="3.69604">
        <ele>770.57</ele>
        <time>2013-09-13T13:38:37Z</time>
      </trkpt>
      <trkpt lat="45.98485" lon="3.69651">
        <ele>766.57</ele>
        <time>2013-09-13T13:39:16Z</time>
      </trkpt>
      <trkpt lat="45.9856" lon="3.69681">
        <ele>765.55</ele>
        <time>2013-09-13T13:39:52Z</time>
      </trkpt>
      <trkpt lat="45.98633" lon="3.69677">
        <ele>769.98</ele>
        <time>2013-09-13T13:40:12Z</time>
      </trkpt>
      <trkpt lat="45.98703" lon="3.69638">
        <ele>773.27</ele>
        <time>2013-09-13T13:40:29Z</time>
      </trkpt>
      <trkpt lat="45.98781" lon="3.69619">
        <ele>777.53</ele>
        <time>2013-09-13T13:41:05Z</time>
      </trkpt>
      <trkpt lat="45.98849" lon="3.69581">
        <ele>782.57</ele>
        <time>2013-09-13T13:41:40Z</time>
      </trkpt>
      <trkpt lat="45.98913" lon="3.69514">
        <ele>789.87</ele>
        <time>2013-09-13T13:42:17Z</time>
      </trkpt>
      <trkpt lat="45.98978" lon="3.69467">
        <ele>797.64</ele>
        <time>2013-09-13T13:43:02Z</time>
      </trkpt>
      <trkpt lat="45.99045" lon="3.69426">
        <ele>807.69</ele>
        <time>2013-09-13T13:43:43Z</time>
      </trkpt>
      <trkpt lat="45.99109" lon="3.69377">
        <ele>819.54</ele>
        <time>2013-09-13T13:44:28Z</time>
      </trkpt>
      <trkpt lat="45.99175" lon="3.69334">
        <ele>827.96</ele>
        <time>2013-09-13T13:45:07Z</time>
      </trkpt>
      <trkpt lat="45.99245" lon="3.69359">
        <ele>838.84</ele>
        <time>2013-09-13T13:46:29Z</time>
      </trkpt>
      <trkpt lat="45.99317" lon="3.6937">
        <ele>851.32</ele>
        <time>2013-09-13T13:47:30Z</time>
      </trkpt>
      <trkpt lat="45.99362" lon="3.69452">
        <ele>863.56</ele>
        <time>2013-09-13T13:48:37Z</time>
      </trkpt>
      <trkpt lat="45.99316" lon="3.69533">
        <ele>870.92</ele>
        <time>2013-09-13T13:49:24Z</time>
      </trkpt>
      <trkpt lat="45.99265" lon="3.69608">
        <ele>876.67</ele>
        <time>2013-09-13T13:50:05Z</time>
      </trkpt>
      <trkpt lat="45.99293" lon="3.69705">
        <ele>882.4</ele>
        <time>2013-09-13T13:50:42Z</time>
      </trkpt>
      <trkpt lat="45.99277" lon="3.69806">
        <ele>882.41</ele>
        <time>2013-09-13T13:50:55Z</time>
      </trkpt>
      <trkpt lat="45.99277" lon="3.69915">
        <ele>882.8</ele>
        <time>2013-09-13T13:51:42Z</time>
      </trkpt>
      <trkpt lat="45.99322" lon="3.70014">
        <ele>885.62</ele>
        <time>2013-09-13T13:52:15Z</time>
      </trkpt>
      <trkpt lat="45.99335" lon="3.70123">
        <ele>891.69</ele>
        <time>2013-09-13T13:52:56Z</time>
      </trkpt>
      <trkpt lat="45.99305" lon="3.70224">
        <ele>895.37</ele>
        <time>2013-09-13T13:53:41Z</time>
      </trkpt>
      <trkpt lat="45.99294" lon="3.70327">
        <ele>898.99</ele>
        <time>2013-09-13T13:55:31Z</time>
      </trkpt>
      <trkpt lat="45.99264" lon="3.70424">
        <ele>907.34</ele>
        <time>2013-09-13T13:56:17Z</time>
      </trkpt>
      <trkpt lat="45.99254" lon="3.70527">
        <ele>922.06</ele>
        <time>2013-09-13T13:56:59Z</time>
      </trkpt>
      <trkpt lat="45.99226" lon="3.70623">
        <ele>926.55</ele>
        <time>2013-09-13T13:57:44Z</time>
      </trkpt>
      <trkpt lat="45.99212" lon="3.70726">
        <ele>925.48</ele>
        <time>2013-09-13T13:58:30Z</time>
      </trkpt>
      <trkpt lat="45.99197" lon="3.70831">
        <ele>931.63</ele>
        <time>2013-09-13T13:59:16Z</time>
      </trkpt>
      <trkpt lat="45.99196" lon="3.70937">
        <ele>948.44</ele>
        <time>2013-09-13T14:00:17Z</time>
      </trkpt>
      <trkpt lat="45.9924" lon="3.7102">
        <ele>959.26</ele>
        <time>2013-09-13T14:01:13Z</time>
      </trkpt>
      <trkpt lat="45.99316" lon="3.7102">
        <ele>965.22</ele>
        <time>2013-09-13T14:01:36Z</time>
      </trkpt>
      <trkpt lat="45.99392" lon="3.71001">
        <ele>977</ele>
        <time>2013-09-13T14:01:53Z</time>
      </trkpt>
      <trkpt lat="45.99464" lon="3.70982">
        <ele>970.73</ele>
        <time>2013-09-13T14:02:05Z</time>
      </trkpt>
      <trkpt lat="45.99532" lon="3.70945">
        <ele>962.61</ele>
        <time>2013-09-13T14:02:16Z</time>
      </trkpt>
      <trkpt lat="45.99601" lon="3.70902">
        <ele>955.71</ele>
        <time>2013-09-13T14:02:29Z</time>
      </trkpt>
      <trkpt lat="45.99674" lon="3.70885">
        <ele>954.57</ele>
        <time>2013-09-13T14:02:41Z</time>
      </trkpt>
      <trkpt lat="45.9975" lon="3.7087">
        <ele>957.85</ele>
        <time>2013-09-13T14:02:54Z</time>
      </trkpt>
      <trkpt lat="45.99824" lon="3.70859">
        <ele>956.79</ele>
        <time>2013-09-13T14:03:06Z</time>
      </trkpt>
      <trkpt lat="45.99898" lon="3.70853">
        <ele>961.8</ele>
        <time>2013-09-13T14:03:14Z</time>
      </trkpt>
      <trkpt lat="45.99972" lon="3.70866">
        <ele>964.76</ele>
        <time>2013-09-13T14:03:21Z</time>
      </trkpt>
      <trkpt lat="46.00047" lon="3.70842">
        <ele>961.71</ele>
        <time>2013-09-13T14:03:30Z</time>
      </trkpt>
      <trkpt lat="46.00124" lon="3.70819">
        <ele>953.57</ele>
        <time>2013-09-13T14:03:39Z</time>
      </trkpt>
      <trkpt lat="46.00196" lon="3.70806">
        <ele>950.38</ele>
        <time>2013-09-13T14:03:46Z</time>
      </trkpt>
      <trkpt lat="46.00267" lon="3.70795">
        <ele>950.03</ele>
        <time>2013-09-13T14:03:56Z</time>
      </trkpt>
      <trkpt lat="46.00323" lon="3.70711">
        <ele>950.25</ele>
        <time>2013-09-13T14:04:04Z</time>
      </trkpt>
      <trkpt lat="46.00394" lon="3.70683">
        <ele>946.55</ele>
        <time>2013-09-13T14:04:11Z</time>
      </trkpt>
      <trkpt lat="46.00465" lon="3.70664">
        <ele>943.74</ele>
        <time>2013-09-13T14:04:21Z</time>
      </trkpt>
      <trkpt lat="46.00537" lon="3.70649">
        <ele>948.91</ele>
        <time>2013-09-13T14:04:32Z</time>
      </trkpt>
      <trkpt lat="46.00608" lon="3.70613">
        <ele>947.06</ele>
        <time>2013-09-13T14:04:46Z</time>
      </trkpt>
      <trkpt lat="46.00671" lon="3.70563">
        <ele>940.62</ele>
        <time>2013-09-13T14:04:59Z</time>
      </trkpt>
      <trkpt lat="46.00736" lon="3.70512">
        <ele>919.64</ele>
        <time>2013-09-13T14:05:15Z</time>
      </trkpt>
      <trkpt lat="46.00808" lon="3.70465">
        <ele>912.35</ele>
        <time>2013-09-13T14:05:42Z</time>
      </trkpt>
      <trkpt lat="46.00877" lon="3.7043">
        <ele>906.31</ele>
        <time>2013-09-13T14:06:04Z</time>
      </trkpt>
      <trkpt lat="46.00953" lon="3.70396">
        <ele>905.13</ele>
        <time>2013-09-13T14:06:23Z</time>
      </trkpt>
      <trkpt lat="46.0103" lon="3.70385">
        <ele>908.86</ele>
        <time>2013-09-13T14:06:32Z</time>
      </trkpt>
      <trkpt lat="46.0111" lon="3.70385">
        <ele>906.29</ele>
        <time>2013-09-13T14:06:42Z</time>
      </trkpt>
      <trkpt lat="46.01184" lon="3.70359">
        <ele>901.91</ele>
        <time>2013-09-13T14:06:51Z</time>
      </trkpt>
      <trkpt lat="46.01259" lon="3.70329">
        <ele>905.09</ele>
        <time>2013-09-13T14:07:00Z</time>
      </trkpt>
      <trkpt lat="46.01334" lon="3.70293">
        <ele>905.28</ele>
        <time>2013-09-13T14:07:10Z</time>
      </trkpt>
      <trkpt lat="46.01406" lon="3.70252">
        <ele>906.2</ele>
        <time>2013-09-13T14:07:19Z</time>
      </trkpt>
      <trkpt lat="46.01479" lon="3.70226">
        <ele>908.31</ele>
        <time>2013-09-13T14:07:27Z</time>
      </trkpt>
      <trkpt lat="46.01556" lon="3.70248">
        <ele>901.95</ele>
        <time>2013-09-13T14:07:34Z</time>
      </trkpt>
      <trkpt lat="46.01628" lon="3.70239">
        <ele>896.44</ele>
        <time>2013-09-13T14:07:42Z</time>
      </trkpt>
      <trkpt lat="46.01691" lon="3.70177">
        <ele>880.48</ele>
        <time>2013-09-13T14:07:55Z</time>
      </trkpt>
      <trkpt lat="46.01739" lon="3.701">
        <ele>866.71</ele>
        <time>2013-09-13T14:08:20Z</time>
      </trkpt>
      <trkpt lat="46.01797" lon="3.70035">
        <ele>866.55</ele>
        <time>2013-09-13T14:08:42Z</time>
      </trkpt>
      <trkpt lat="46.01866" lon="3.69988">
        <ele>871.56</ele>
        <time>2013-09-13T14:08:59Z</time>
      </trkpt>
      <trkpt lat="46.01939" lon="3.6996">
        <ele>869.29</ele>
        <time>2013-09-13T14:09:11Z</time>
      </trkpt>
      <trkpt lat="46.02009" lon="3.6992">
        <ele>873.22</ele>
        <time>2013-09-13T14:09:20Z</time>
      </trkpt>
      <trkpt lat="46.02066" lon="3.69853">
        <ele>865.42</ele>
        <time>2013-09-13T14:09:30Z</time>
      </trkpt>
      <trkpt lat="46.02127" lon="3.69795">
        <ele>861.55</ele>
        <time>2013-09-13T14:09:58Z</time>
      </trkpt>
      <trkpt lat="46.02193" lon="3.69748">
        <ele>857.64</ele>
        <time>2013-09-13T14:10:20Z</time>
      </trkpt>
      <trkpt lat="46.02262" lon="3.69709">
        <ele>852.19</ele>
        <time>2013-09-13T14:10:41Z</time>
      </trkpt>
      <trkpt lat="46.02325" lon="3.6966">
        <ele>848</ele>
        <time>2013-09-13T14:11:00Z</time>
      </trkpt>
      <trkpt lat="46.02391" lon="3.69608">
        <ele>844.59</ele>
        <time>2013-09-13T14:11:25Z</time>
      </trkpt>
      <trkpt lat="46.0246" lon="3.6957">
        <ele>845.32</ele>
        <time>2013-09-13T14:11:51Z</time>
      </trkpt>
      <trkpt lat="46.02528" lon="3.69525">
        <ele>851.44</ele>
        <time>2013-09-13T14:12:14Z</time>
      </trkpt>
      <trkpt lat="46.02589" lon="3.69469">
        <ele>856.53</ele>
        <time>2013-09-13T14:12:46Z</time>
      </trkpt>
      <trkpt lat="46.02647" lon="3.69392">
        <ele>857.25</ele>
        <time>2013-09-13T14:13:09Z</time>
      </trkpt>
      <trkpt lat="46.0269" lon="3.69304">
        <ele>850.56</ele>
        <time>2013-09-13T14:13:18Z</time>
      </trkpt>
      <trkpt lat="46.02743" lon="3.69226">
        <ele>843.09</ele>
        <time>2013-09-13T14:13:32Z</time>
      </trkpt>
      <trkpt lat="46.02797" lon="3.69153">
        <ele>844.2</ele>
        <time>2013-09-13T14:13:47Z</time>
      </trkpt>
      <trkpt lat="46.02833" lon="3.69059">
        <ele>849.89</ele>
        <time>2013-09-13T14:14:01Z</time>
      </trkpt>
      <trkpt lat="46.0285" lon="3.68958">
        <ele>853.67</ele>
        <time>2013-09-13T14:14:17Z</time>
      </trkpt>
      <trkpt lat="46.0288" lon="3.68862">
        <ele>863.38</ele>
        <time>2013-09-13T14:14:31Z</time>
      </trkpt>
      <trkpt lat="46.02909" lon="3.68763">
        <ele>868.85</ele>
        <time>2013-09-13T14:14:45Z</time>
      </trkpt>
      <trkpt lat="46.02938" lon="3.68656">
        <ele>881.62</ele>
        <time>2013-09-13T14:14:55Z</time>
      </trkpt>
      <trkpt lat="46.02967" lon="3.68559">
        <ele>878.12</ele>
        <time>2013-09-13T14:15:01Z</time>
      </trkpt>
      <trkpt lat="46.02996" lon="3.6846">
        <ele>860.96</ele>
        <time>2013-09-13T14:15:09Z</time>
      </trkpt>
      <trkpt lat="46.03032" lon="3.68362">
        <ele>851.01</ele>
        <time>2013-09-13T14:15:19Z</time>
      </trkpt>
      <trkpt lat="46.03073" lon="3.68272">
        <ele>847.71</ele>
        <time>2013-09-13T14:15:31Z</time>
      </trkpt>
      <trkpt lat="46.03116" lon="3.68181">
        <ele>846.58</ele>
        <time>2013-09-13T14:15:45Z</time>
      </trkpt>
      <trkpt lat="46.03153" lon="3.68089">
        <ele>850.2</ele>
        <time>2013-09-13T14:16:06Z</time>
      </trkpt>
      <trkpt lat="46.03208" lon="3.68018">
        <ele>853.75</ele>
        <time>2013-09-13T14:16:25Z</time>
      </trkpt>
      <trkpt lat="46.03267" lon="3.67952">
        <ele>854.78</ele>
        <time>2013-09-13T14:16:43Z</time>
      </trkpt>
      <trkpt lat="46.03319" lon="3.67879">
        <ele>849.87</ele>
        <time>2013-09-13T14:19:55Z</time>
      </trkpt>
      <trkpt lat="46.03338" lon="3.67774">
        <ele>845.62</ele>
        <time>2013-09-13T14:23:25Z</time>
      </trkpt>
      <trkpt lat="46.0333" lon="3.67656">
        <ele>845.77</ele>
        <time>2013-09-13T14:23:34Z</time>
      </trkpt>
      <trkpt lat="46.03324" lon="3.67553">
        <ele>843.82</ele>
        <time>2013-09-13T14:23:40Z</time>
      </trkpt>
      <trkpt lat="46.03323" lon="3.67443">
        <ele>843.32</ele>
        <time>2013-09-13T14:23:49Z</time>
      </trkpt>
      <trkpt lat="46.03328" lon="3.67332">
        <ele>844.21</ele>
        <time>2013-09-13T14:24:01Z</time>
      </trkpt>
      <trkpt lat="46.03305" lon="3.67229">
        <ele>848.51</ele>
        <time>2013-09-13T14:24:15Z</time>
      </trkpt>
      <trkpt lat="46.03259" lon="3.67141">
        <ele>843.78</ele>
        <time>2013-09-13T14:24:30Z</time>
      </trkpt>
      <trkpt lat="46.03235" lon="3.67042">
        <ele>840.24</ele>
        <time>2013-09-13T14:24:49Z</time>
      </trkpt>
      <trkpt lat="46.03268" lon="3.66939">
        <ele>830.09</ele>
        <time>2013-09-13T14:24:57Z</time>
      </trkpt>
      <trkpt lat="46.03273" lon="3.66823">
        <ele>820.83</ele>
        <time>2013-09-13T14:25:04Z</time>
      </trkpt>
      <trkpt lat="46.0329" lon="3.66722">
        <ele>813.78</ele>
        <time>2013-09-13T14:25:10Z</time>
      </trkpt>
      <trkpt lat="46.03304" lon="3.66613">
        <ele>810.11</ele>
        <time>2013-09-13T14:25:16Z</time>
      </trkpt>
      <trkpt lat="46.03321" lon="3.66508">
        <ele>806.06</ele>
        <time>2013-09-13T14:25:22Z</time>
      </trkpt>
      <trkpt lat="46.03324" lon="3.66396">
        <ele>802.38</ele>
        <time>2013-09-13T14:25:27Z</time>
      </trkpt>
      <trkpt lat="46.03328" lon="3.66276">
        <ele>792.34</ele>
        <time>2013-09-13T14:25:32Z</time>
      </trkpt>
      <trkpt lat="46.03334" lon="3.6616">
        <ele>783.77</ele>
        <time>2013-09-13T14:25:37Z</time>
      </trkpt>
      <trkpt lat="46.03332" lon="3.66049">
        <ele>776.83</ele>
        <time>2013-09-13T14:25:42Z</time>
      </trkpt>
      <trkpt lat="46.03309" lon="3.65946">
        <ele>769.98</ele>
        <time>2013-09-13T14:25:49Z</time>
      </trkpt>
      <trkpt lat="46.03289" lon="3.65828">
        <ele>762.61</ele>
        <time>2013-09-13T14:25:56Z</time>
      </trkpt>
      <trkpt lat="46.03276" lon="3.6571">
        <ele>753.93</ele>
        <time>2013-09-13T14:26:02Z</time>
      </trkpt>
      <trkpt lat="46.03271" lon="3.65602">
        <ele>744.84</ele>
        <time>2013-09-13T14:26:07Z</time>
      </trkpt>
      <trkpt lat="46.0326" lon="3.65493">
        <ele>736.07</ele>
        <time>2013-09-13T14:26:12Z</time>
      </trkpt>
      <trkpt lat="46.0323" lon="3.65392">
        <ele>724.48</ele>
        <time>2013-09-13T14:26:17Z</time>
      </trkpt>
      <trkpt lat="46.03193" lon="3.65295">
        <ele>700.55</ele>
        <time>2013-09-13T14:26:23Z</time>
      </trkpt>
      <trkpt lat="46.03165" lon="3.65188">
        <ele>678.47</ele>
        <time>2013-09-13T14:26:30Z</time>
      </trkpt>
      <trkpt lat="46.03152" lon="3.65072">
        <ele>669.2</ele>
        <time>2013-09-13T14:26:37Z</time>
      </trkpt>
      <trkpt lat="46.03145" lon="3.64967">
        <ele>662.12</ele>
        <time>2013-09-13T14:26:44Z</time>
      </trkpt>
      <trkpt lat="46.03104" lon="3.64877">
        <ele>600.87</ele>
        <time>2013-09-13T14:27:20Z</time>
      </trkpt>
      <trkpt lat="46.03134" lon="3.64776">
        <ele>597.6</ele>
        <time>2013-09-13T14:27:35Z</time>
      </trkpt>
      <trkpt lat="46.0316" lon="3.6468">
        <ele>598.13</ele>
        <time>2013-09-13T14:27:51Z</time>
      </trkpt>
      <trkpt lat="46.03152" lon="3.64574">
        <ele>598.55</ele>
        <time>2013-09-13T14:28:19Z</time>
      </trkpt>
      <trkpt lat="46.03126" lon="3.64474">
        <ele>600.52</ele>
        <time>2013-09-13T14:28:41Z</time>
      </trkpt>
      <trkpt lat="46.03089" lon="3.64381">
        <ele>606.09</ele>
        <time>2013-09-13T14:29:03Z</time>
      </trkpt>
      <trkpt lat="46.03053" lon="3.64289">
        <ele>608.41</ele>
        <time>2013-09-13T14:29:28Z</time>
      </trkpt>
      <trkpt lat="46.03085" lon="3.64192">
        <ele>611.65</ele>
        <time>2013-09-13T14:29:52Z</time>
      </trkpt>
      <trkpt lat="46.03079" lon="3.64087">
        <ele>618.59</ele>
        <time>2013-09-13T14:30:33Z</time>
      </trkpt>
      <trkpt lat="46.03059" lon="3.63982">
        <ele>627.61</ele>
        <time>2013-09-13T14:31:24Z</time>
      </trkpt>
      <trkpt lat="46.03067" lon="3.63879">
        <ele>635.76</ele>
        <time>2013-09-13T14:32:04Z</time>
      </trkpt>
      <trkpt lat="46.03056" lon="3.63774">
        <ele>642.24</ele>
        <time>2013-09-13T14:32:33Z</time>
      </trkpt>
      <trkpt lat="46.03034" lon="3.63671">
        <ele>651.78</ele>
        <time>2013-09-13T14:32:51Z</time>
      </trkpt>
      <trkpt lat="46.02997" lon="3.63581">
        <ele>652.55</ele>
        <time>2013-09-13T14:33:11Z</time>
      </trkpt>
      <trkpt lat="46.02956" lon="3.63495">
        <ele>653.38</ele>
        <time>2013-09-13T14:33:34Z</time>
      </trkpt>
      <trkpt lat="46.0293" lon="3.63396">
        <ele>652.57</ele>
        <time>2013-09-13T14:33:54Z</time>
      </trkpt>
      <trkpt lat="46.02905" lon="3.63296">
        <ele>651.98</ele>
        <time>2013-09-13T14:34:10Z</time>
      </trkpt>
      <trkpt lat="46.02869" lon="3.63205">
        <ele>651.56</ele>
        <time>2013-09-13T14:34:24Z</time>
      </trkpt>
      <trkpt lat="46.02834" lon="3.63111">
        <ele>653.97</ele>
        <time>2013-09-13T14:34:43Z</time>
      </trkpt>
      <trkpt lat="46.0279" lon="3.63027">
        <ele>654.55</ele>
        <time>2013-09-13T14:35:00Z</time>
      </trkpt>
      <trkpt lat="46.02738" lon="3.62954">
        <ele>650.8</ele>
        <time>2013-09-13T14:35:19Z</time>
      </trkpt>
      <trkpt lat="46.02711" lon="3.62858">
        <ele>648.56</ele>
        <time>2013-09-13T14:35:41Z</time>
      </trkpt>
      <trkpt lat="46.02693" lon="3.62753">
        <ele>646.26</ele>
        <time>2013-09-13T14:36:03Z</time>
      </trkpt>
      <trkpt lat="46.02679" lon="3.6265">
        <ele>645.81</ele>
        <time>2013-09-13T14:36:20Z</time>
      </trkpt>
      <trkpt lat="46.02673" lon="3.62547">
        <ele>645.75</ele>
        <time>2013-09-13T14:36:32Z</time>
      </trkpt>
      <trkpt lat="46.0269" lon="3.62435">
        <ele>641.32</ele>
        <time>2013-09-13T14:36:44Z</time>
      </trkpt>
      <trkpt lat="46.0271" lon="3.62328">
        <ele>632.19</ele>
        <time>2013-09-13T14:37:00Z</time>
      </trkpt>
      <trkpt lat="46.02741" lon="3.62231">
        <ele>620.51</ele>
        <time>2013-09-13T14:37:11Z</time>
      </trkpt>
      <trkpt lat="46.02775" lon="3.62135">
        <ele>615.53</ele>
        <time>2013-09-13T14:37:21Z</time>
      </trkpt>
      <trkpt lat="46.02792" lon="3.62032">
        <ele>613.35</ele>
        <time>2013-09-13T14:37:29Z</time>
      </trkpt>
      <trkpt lat="46.02822" lon="3.61937">
        <ele>611.79</ele>
        <time>2013-09-13T14:37:38Z</time>
      </trkpt>
      <trkpt lat="46.02847" lon="3.61836">
        <ele>608.6</ele>
        <time>2013-09-13T14:37:57Z</time>
      </trkpt>
      <trkpt lat="46.02814" lon="3.61742">
        <ele>605.61</ele>
        <time>2013-09-13T14:38:14Z</time>
      </trkpt>
      <trkpt lat="46.02783" lon="3.61643">
        <ele>599.71</ele>
        <time>2013-09-13T14:38:30Z</time>
      </trkpt>
      <trkpt lat="46.02744" lon="3.61551">
        <ele>594.14</ele>
        <time>2013-09-13T14:38:52Z</time>
      </trkpt>
      <trkpt lat="46.02692" lon="3.61472">
        <ele>593.55</ele>
        <time>2013-09-13T14:39:17Z</time>
      </trkpt>
      <trkpt lat="46.02649" lon="3.61386">
        <ele>595.51</ele>
        <time>2013-09-13T14:39:35Z</time>
      </trkpt>
      <trkpt lat="46.02607" lon="3.613">
        <ele>597.03</ele>
        <time>2013-09-13T14:39:52Z</time>
      </trkpt>
      <trkpt lat="46.02585" lon="3.61199">
        <ele>597.46</ele>
        <time>2013-09-13T14:40:09Z</time>
      </trkpt>
      <trkpt lat="46.02559" lon="3.61096">
        <ele>597.65</ele>
        <time>2013-09-13T14:40:27Z</time>
      </trkpt>
      <trkpt lat="46.02519" lon="3.61008">
        <ele>596.56</ele>
        <time>2013-09-13T14:40:46Z</time>
      </trkpt>
      <trkpt lat="46.02466" lon="3.60935">
        <ele>598.78</ele>
        <time>2013-09-13T14:41:05Z</time>
      </trkpt>
      <trkpt lat="46.02414" lon="3.60858">
        <ele>600.99</ele>
        <time>2013-09-13T14:41:23Z</time>
      </trkpt>
      <trkpt lat="46.0237" lon="3.60772">
        <ele>600.47</ele>
        <time>2013-09-13T14:41:38Z</time>
      </trkpt>
      <trkpt lat="46.02325" lon="3.60691">
        <ele>596.85</ele>
        <time>2013-09-13T14:41:53Z</time>
      </trkpt>
      <trkpt lat="46.02277" lon="3.60613">
        <ele>595.73</ele>
        <time>2013-09-13T14:42:12Z</time>
      </trkpt>
      <trkpt lat="46.02246" lon="3.60519">
        <ele>594.23</ele>
        <time>2013-09-13T14:42:31Z</time>
      </trkpt>
      <trkpt lat="46.02193" lon="3.60435">
        <ele>586.19</ele>
        <time>2013-09-13T14:42:44Z</time>
      </trkpt>
      <trkpt lat="46.02132" lon="3.60375">
        <ele>583.89</ele>
        <time>2013-09-13T14:42:55Z</time>
      </trkpt>
      <trkpt lat="46.02068" lon="3.60302">
        <ele>579.69</ele>
        <time>2013-09-13T14:43:07Z</time>
      </trkpt>
      <trkpt lat="46.02092" lon="3.60199">
        <ele>562.4</ele>
        <time>2013-09-13T14:43:27Z</time>
      </trkpt>
      <trkpt lat="46.02152" lon="3.60128">
        <ele>559.27</ele>
        <time>2013-09-13T14:43:38Z</time>
      </trkpt>
      <trkpt lat="46.02203" lon="3.60053">
        <ele>557.16</ele>
        <time>2013-09-13T14:43:53Z</time>
      </trkpt>
      <trkpt lat="46.02259" lon="3.59978">
        <ele>549.22</ele>
        <time>2013-09-13T14:44:11Z</time>
      </trkpt>
      <trkpt lat="46.02328" lon="3.59935">
        <ele>546.42</ele>
        <time>2013-09-13T14:44:32Z</time>
      </trkpt>
      <trkpt lat="46.02393" lon="3.59998">
        <ele>537.17</ele>
        <time>2013-09-13T14:44:44Z</time>
      </trkpt>
      <trkpt lat="46.02453" lon="3.60064">
        <ele>529.48</ele>
        <time>2013-09-13T14:44:54Z</time>
      </trkpt>
      <trkpt lat="46.02487" lon="3.60169">
        <ele>523.22</ele>
        <time>2013-09-13T14:45:07Z</time>
      </trkpt>
      <trkpt lat="46.02526" lon="3.60266">
        <ele>518.32</ele>
        <time>2013-09-13T14:45:28Z</time>
      </trkpt>
      <trkpt lat="46.02599" lon="3.60268">
        <ele>521.67</ele>
        <time>2013-09-13T14:46:16Z</time>
      </trkpt>
      <trkpt lat="46.02674" lon="3.603">
        <ele>524.8</ele>
        <time>2013-09-13T14:47:22Z</time>
      </trkpt>
      <trkpt lat="46.02741" lon="3.60257">
        <ele>525.83</ele>
        <time>2013-09-13T14:48:02Z</time>
      </trkpt>
      <trkpt lat="46.02785" lon="3.60169">
        <ele>528.39</ele>
        <time>2013-09-13T14:48:14Z</time>
      </trkpt>
      <trkpt lat="46.02829" lon="3.60083">
        <ele>524.5</ele>
        <time>2013-09-13T14:48:30Z</time>
      </trkpt>
      <trkpt lat="46.02864" lon="3.59991">
        <ele>520.59</ele>
        <time>2013-09-13T14:48:49Z</time>
      </trkpt>
      <trkpt lat="46.0289" lon="3.59895">
        <ele>508.82</ele>
        <time>2013-09-13T14:49:07Z</time>
      </trkpt>
      <trkpt lat="46.02879" lon="3.59792">
        <ele>497.24</ele>
        <time>2013-09-13T14:49:31Z</time>
      </trkpt>
      <trkpt lat="46.02914" lon="3.59697">
        <ele>485.35</ele>
        <time>2013-09-13T14:49:44Z</time>
      </trkpt>
      <trkpt lat="46.02959" lon="3.59609">
        <ele>475.4</ele>
        <time>2013-09-13T14:50:00Z</time>
      </trkpt>
      <trkpt lat="46.0289" lon="3.59564">
        <ele>467.48</ele>
        <time>2013-09-13T14:50:33Z</time>
      </trkpt>
      <trkpt lat="46.02824" lon="3.59508">
        <ele>453.71</ele>
        <time>2013-09-13T14:50:49Z</time>
      </trkpt>
      <trkpt lat="46.0279" lon="3.59416">
        <ele>430.83</ele>
        <time>2013-09-13T14:51:23Z</time>
      </trkpt>
      <trkpt lat="46.02844" lon="3.59332">
        <ele>417.37</ele>
        <time>2013-09-13T14:51:56Z</time>
      </trkpt>
      <trkpt lat="46.0291" lon="3.59277">
        <ele>417.43</ele>
        <time>2013-09-13T14:52:23Z</time>
      </trkpt>
      <trkpt lat="46.02986" lon="3.59309">
        <ele>423.44</ele>
        <time>2013-09-13T14:53:44Z</time>
      </trkpt>
      <trkpt lat="46.0305" lon="3.59356">
        <ele>423.32</ele>
        <time>2013-09-13T14:54:08Z</time>
      </trkpt>
      <trkpt lat="46.0312" lon="3.59317">
        <ele>421.8</ele>
        <time>2013-09-13T14:54:51Z</time>
      </trkpt>
      <trkpt lat="46.03193" lon="3.59304">
        <ele>414.91</ele>
        <time>2013-09-13T14:55:23Z</time>
      </trkpt>
      <trkpt lat="46.03266" lon="3.59289">
        <ele>409.58</ele>
        <time>2013-09-13T14:55:58Z</time>
      </trkpt>
      <trkpt lat="46.03323" lon="3.59223">
        <ele>413.35</ele>
        <time>2013-09-13T14:56:23Z</time>
      </trkpt>
      <trkpt lat="46.03395" lon="3.59186">
        <ele>415.52</ele>
        <time>2013-09-13T14:56:50Z</time>
      </trkpt>
      <trkpt lat="46.03459" lon="3.59131">
        <ele>414.56</ele>
        <time>2013-09-13T14:57:13Z</time>
      </trkpt>
      <trkpt lat="46.03518" lon="3.59068">
        <ele>413.12</ele>
        <time>2013-09-13T14:57:34Z</time>
      </trkpt>
      <trkpt lat="46.03584" lon="3.59015">
        <ele>407.32</ele>
        <time>2013-09-13T14:57:52Z</time>
      </trkpt>
      <trkpt lat="46.03645" lon="3.58942">
        <ele>400.38</ele>
        <time>2013-09-13T14:58:21Z</time>
      </trkpt>
      <trkpt lat="46.03688" lon="3.58847">
        <ele>399.39</ele>
        <time>2013-09-13T14:58:41Z</time>
      </trkpt>
      <trkpt lat="46.0374" lon="3.5877">
        <ele>399.96</ele>
        <time>2013-09-13T14:58:55Z</time>
      </trkpt>
      <trkpt lat="46.038" lon="3.58689">
        <ele>401.55</ele>
        <time>2013-09-13T15:01:12Z</time>
      </trkpt>
      <trkpt lat="46.0386" lon="3.58629">
        <ele>398.7</ele>
        <time>2013-09-13T15:01:42Z</time>
      </trkpt>
      <trkpt lat="46.03928" lon="3.58583">
        <ele>401.02</ele>
        <time>2013-09-13T15:02:09Z</time>
      </trkpt>
      <trkpt lat="46.0391" lon="3.5848">
        <ele>402.55</ele>
        <time>2013-09-13T15:02:53Z</time>
      </trkpt>
      <trkpt lat="46.03946" lon="3.5839">
        <ele>401.87</ele>
        <time>2013-09-13T15:03:28Z</time>
      </trkpt>
      <trkpt lat="46.03967" lon="3.58289">
        <ele>409.42</ele>
        <time>2013-09-13T15:05:03Z</time>
      </trkpt>
      <trkpt lat="46.03994" lon="3.58193">
        <ele>417.37</ele>
        <time>2013-09-13T15:05:45Z</time>
      </trkpt>
      <trkpt lat="46.04055" lon="3.58137">
        <ele>435.8</ele>
        <time>2013-09-13T15:07:17Z</time>
      </trkpt>
      <trkpt lat="46.04112" lon="3.58204">
        <ele>452.41</ele>
        <time>2013-09-13T15:08:45Z</time>
      </trkpt>
      <trkpt lat="46.04179" lon="3.58242">
        <ele>469.42</ele>
        <time>2013-09-13T15:11:30Z</time>
      </trkpt>
      <trkpt lat="46.04252" lon="3.5824">
        <ele>481.17</ele>
        <time>2013-09-13T15:12:26Z</time>
      </trkpt>
      <trkpt lat="46.0432" lon="3.58277">
        <ele>486.37</ele>
        <time>2013-09-13T15:13:15Z</time>
      </trkpt>
      <trkpt lat="46.04351" lon="3.58182">
        <ele>495.82</ele>
        <time>2013-09-13T15:13:51Z</time>
      </trkpt>
      <trkpt lat="46.0433" lon="3.58081">
        <ele>499.29</ele>
        <time>2013-09-13T15:14:02Z</time>
      </trkpt>
      <trkpt lat="46.04351" lon="3.5798">
        <ele>499.97</ele>
        <time>2013-09-13T15:14:14Z</time>
      </trkpt>
      <trkpt lat="46.04402" lon="3.57905">
        <ele>493.34</ele>
        <time>2013-09-13T15:14:30Z</time>
      </trkpt>
      <trkpt lat="46.04445" lon="3.57817">
        <ele>486.94</ele>
        <time>2013-09-13T15:14:48Z</time>
      </trkpt>
      <trkpt lat="46.04497" lon="3.57744">
        <ele>478.12</ele>
        <time>2013-09-13T15:15:08Z</time>
      </trkpt>
      <trkpt lat="46.04514" lon="3.57644">
        <ele>458.62</ele>
        <time>2013-09-13T15:15:27Z</time>
      </trkpt>
      <trkpt lat="46.04528" lon="3.57534">
        <ele>448.75</ele>
        <time>2013-09-13T15:15:52Z</time>
      </trkpt>
      <trkpt lat="46.0459" lon="3.57474">
        <ele>424.96</ele>
        <time>2013-09-13T15:16:03Z</time>
      </trkpt>
      <trkpt lat="46.04665" lon="3.57457">
        <ele>412.58</ele>
        <time>2013-09-13T15:16:16Z</time>
      </trkpt>
      <trkpt lat="46.04735" lon="3.57485">
        <ele>399.51</ele>
        <time>2013-09-13T15:16:33Z</time>
      </trkpt>
      <trkpt lat="46.0481" lon="3.57502">
        <ele>381.33</ele>
        <time>2013-09-13T15:16:48Z</time>
      </trkpt>
      <trkpt lat="46.04882" lon="3.57519">
        <ele>381.46</ele>
        <time>2013-09-13T15:17:01Z</time>
      </trkpt>
      <trkpt lat="46.04958" lon="3.5753">
        <ele>381.17</ele>
        <time>2013-09-13T15:17:13Z</time>
      </trkpt>
      <trkpt lat="46.05029" lon="3.57506">
        <ele>383.09</ele>
        <time>2013-09-13T15:17:36Z</time>
      </trkpt>
      <trkpt lat="46.05102" lon="3.57481">
        <ele>387.58</ele>
        <time>2013-09-13T15:17:49Z</time>
      </trkpt>
      <trkpt lat="46.05168" lon="3.57418">
        <ele>387.14</ele>
        <time>2013-09-13T15:18:00Z</time>
      </trkpt>
      <trkpt lat="46.05227" lon="3.57356">
        <ele>388.96</ele>
        <time>2013-09-13T15:18:08Z</time>
      </trkpt>
      <trkpt lat="46.05282" lon="3.57287">
        <ele>388.42</ele>
        <time>2013-09-13T15:18:20Z</time>
      </trkpt>
      <trkpt lat="46.05356" lon="3.57292">
        <ele>382.16</ele>
        <time>2013-09-13T15:18:32Z</time>
      </trkpt>
      <trkpt lat="46.0543" lon="3.57275">
        <ele>370.92</ele>
        <time>2013-09-13T15:20:21Z</time>
      </trkpt>
      <trkpt lat="46.05494" lon="3.57217">
        <ele>367.07</ele>
        <time>2013-09-13T15:20:35Z</time>
      </trkpt>
      <trkpt lat="46.05552" lon="3.5715">
        <ele>364.92</ele>
        <time>2013-09-13T15:20:48Z</time>
      </trkpt>
      <trkpt lat="46.0562" lon="3.57105">
        <ele>367.68</ele>
        <time>2013-09-13T15:21:00Z</time>
      </trkpt>
      <trkpt lat="46.05688" lon="3.57064">
        <ele>372.99</ele>
        <time>2013-09-13T15:21:12Z</time>
      </trkpt>
      <trkpt lat="46.05757" lon="3.57032">
        <ele>374.89</ele>
        <time>2013-09-13T15:21:24Z</time>
      </trkpt>
      <trkpt lat="46.05832" lon="3.5703">
        <ele>372.3</ele>
        <time>2013-09-13T15:21:37Z</time>
      </trkpt>
      <trkpt lat="46.05885" lon="3.56953">
        <ele>373.13</ele>
        <time>2013-09-13T15:21:53Z</time>
      </trkpt>
      <trkpt lat="46.05915" lon="3.56856">
        <ele>373.41</ele>
        <time>2013-09-13T15:22:06Z</time>
      </trkpt>
      <trkpt lat="46.05894" lon="3.56753">
        <ele>365.5</ele>
        <time>2013-09-13T15:22:21Z</time>
      </trkpt>
      <trkpt lat="46.059" lon="3.56648">
        <ele>363.46</ele>
        <time>2013-09-13T15:22:34Z</time>
      </trkpt>
      <trkpt lat="46.05947" lon="3.56564">
        <ele>363.48</ele>
        <time>2013-09-13T15:23:04Z</time>
      </trkpt>
      <trkpt lat="46.06008" lon="3.56508">
        <ele>366.45</ele>
        <time>2013-09-13T15:23:33Z</time>
      </trkpt>
      <trkpt lat="46.06081" lon="3.5647">
        <ele>370.8</ele>
        <time>2013-09-13T15:23:46Z</time>
      </trkpt>
      <trkpt lat="46.0615" lon="3.56416">
        <ele>368.09</ele>
        <time>2013-09-13T15:23:58Z</time>
      </trkpt>
      <trkpt lat="46.06223" lon="3.56403">
        <ele>367.22</ele>
        <time>2013-09-13T15:24:10Z</time>
      </trkpt>
      <trkpt lat="46.06287" lon="3.56356">
        <ele>374.4</ele>
        <time>2013-09-13T15:24:25Z</time>
      </trkpt>
      <trkpt lat="46.06352" lon="3.563">
        <ele>374.41</ele>
        <time>2013-09-13T15:24:39Z</time>
      </trkpt>
      <trkpt lat="46.06414" lon="3.56245">
        <ele>374.94</ele>
        <time>2013-09-13T15:24:54Z</time>
      </trkpt>
      <trkpt lat="46.06474" lon="3.56182">
        <ele>374.9</ele>
        <time>2013-09-13T15:25:11Z</time>
      </trkpt>
      <trkpt lat="46.06524" lon="3.56107">
        <ele>371.28</ele>
        <time>2013-09-13T15:25:27Z</time>
      </trkpt>
      <trkpt lat="46.06589" lon="3.56041">
        <ele>372.45</ele>
        <time>2013-09-13T15:26:25Z</time>
      </trkpt>
      <trkpt lat="46.06532" lon="3.55959">
        <ele>376.75</ele>
        <time>2013-09-13T15:28:02Z</time>
      </trkpt>
      <trkpt lat="46.06479" lon="3.55888">
        <ele>389.32</ele>
        <time>2013-09-13T15:29:16Z</time>
      </trkpt>
      <trkpt lat="46.06425" lon="3.55818">
        <ele>403.06</ele>
        <time>2013-09-13T15:30:36Z</time>
      </trkpt>
      <trkpt lat="46.06406" lon="3.55715">
        <ele>406.74</ele>
        <time>2013-09-13T15:31:14Z</time>
      </trkpt>
      <trkpt lat="46.06376" lon="3.55618">
        <ele>412.25</ele>
        <time>2013-09-13T15:31:31Z</time>
      </trkpt>
      <trkpt lat="46.06326" lon="3.55543">
        <ele>413.98</ele>
        <time>2013-09-13T15:31:55Z</time>
      </trkpt>
      <trkpt lat="46.06265" lon="3.55483">
        <ele>415.48</ele>
        <time>2013-09-13T15:32:15Z</time>
      </trkpt>
      <trkpt lat="46.06208" lon="3.55416">
        <ele>418.29</ele>
        <time>2013-09-13T15:32:36Z</time>
      </trkpt>
      <trkpt lat="46.06153" lon="3.55348">
        <ele>422.09</ele>
        <time>2013-09-13T15:33:14Z</time>
      </trkpt>
      <trkpt lat="46.06119" lon="3.55253">
        <ele>429.68</ele>
        <time>2013-09-13T15:33:58Z</time>
      </trkpt>
      <trkpt lat="46.06062" lon="3.55185">
        <ele>436.35</ele>
        <time>2013-09-13T15:34:41Z</time>
      </trkpt>
      <trkpt lat="46.06016" lon="3.55103">
        <ele>441.48</ele>
        <time>2013-09-13T15:35:35Z</time>
      </trkpt>
      <trkpt lat="46.06002" lon="3.55">
        <ele>448.5</ele>
        <time>2013-09-13T15:36:16Z</time>
      </trkpt>
      <trkpt lat="46.05939" lon="3.54949">
        <ele>459.63</ele>
        <time>2013-09-13T15:36:59Z</time>
      </trkpt>
      <trkpt lat="46.05866" lon="3.54942">
        <ele>469.8</ele>
        <time>2013-09-13T15:37:39Z</time>
      </trkpt>
      <trkpt lat="46.0581" lon="3.54876">
        <ele>478.55</ele>
        <time>2013-09-13T15:38:19Z</time>
      </trkpt>
      <trkpt lat="46.05778" lon="3.54781">
        <ele>483.28</ele>
        <time>2013-09-13T15:38:47Z</time>
      </trkpt>
      <trkpt lat="46.05765" lon="3.54676">
        <ele>491.59</ele>
        <time>2013-09-13T15:39:12Z</time>
      </trkpt>
      <trkpt lat="46.05769" lon="3.54567">
        <ele>493.55</ele>
        <time>2013-09-13T15:39:35Z</time>
      </trkpt>
      <trkpt lat="46.05786" lon="3.54466">
        <ele>493.55</ele>
        <time>2013-09-13T15:39:48Z</time>
      </trkpt>
      <trkpt lat="46.05766" lon="3.54358">
        <ele>492</ele>
        <time>2013-09-13T15:39:58Z</time>
      </trkpt>
      <trkpt lat="46.05762" lon="3.54253">
        <ele>489.3</ele>
        <time>2013-09-13T15:40:08Z</time>
      </trkpt>
      <trkpt lat="46.05771" lon="3.54144">
        <ele>483.61</ele>
        <time>2013-09-13T15:40:55Z</time>
      </trkpt>
      <trkpt lat="46.05819" lon="3.54062">
        <ele>481.06</ele>
        <time>2013-09-13T15:41:07Z</time>
      </trkpt>
      <trkpt lat="46.05835" lon="3.53959">
        <ele>480.55</ele>
        <time>2013-09-13T15:42:02Z</time>
      </trkpt>
      <trkpt lat="46.05838" lon="3.53854">
        <ele>482.12</ele>
        <time>2013-09-13T15:42:41Z</time>
      </trkpt>
      <trkpt lat="46.05805" lon="3.5376">
        <ele>486.22</ele>
        <time>2013-09-13T15:43:30Z</time>
      </trkpt>
      <trkpt lat="46.05787" lon="3.53659">
        <ele>492.06</ele>
        <time>2013-09-13T15:44:29Z</time>
      </trkpt>
      <trkpt lat="46.05775" lon="3.53556">
        <ele>506.58</ele>
        <time>2013-09-13T15:46:11Z</time>
      </trkpt>
      <trkpt lat="46.05775" lon="3.53449">
        <ele>512.36</ele>
        <time>2013-09-13T15:46:57Z</time>
      </trkpt>
      <trkpt lat="46.058" lon="3.53346">
        <ele>518.01</ele>
        <time>2013-09-13T15:47:20Z</time>
      </trkpt>
      <trkpt lat="46.05845" lon="3.53264">
        <ele>519.07</ele>
        <time>2013-09-13T15:47:36Z</time>
      </trkpt>
      <trkpt lat="46.05884" lon="3.5317">
        <ele>520.52</ele>
        <time>2013-09-13T15:47:53Z</time>
      </trkpt>
      <trkpt lat="46.05938" lon="3.53095">
        <ele>520.55</ele>
        <time>2013-09-13T15:48:11Z</time>
      </trkpt>
      <trkpt lat="46.06009" lon="3.53067">
        <ele>523.32</ele>
        <time>2013-09-13T15:48:26Z</time>
      </trkpt>
      <trkpt lat="46.06065" lon="3.53">
        <ele>523.55</ele>
        <time>2013-09-13T15:48:41Z</time>
      </trkpt>
      <trkpt lat="46.06134" lon="3.52966">
        <ele>522.57</ele>
        <time>2013-09-13T15:48:56Z</time>
      </trkpt>
      <trkpt lat="46.06211" lon="3.52962">
        <ele>524.7</ele>
        <time>2013-09-13T15:49:09Z</time>
      </trkpt>
      <trkpt lat="46.06283" lon="3.52989">
        <ele>524.61</ele>
        <time>2013-09-13T15:49:22Z</time>
      </trkpt>
      <trkpt lat="46.06358" lon="3.53009">
        <ele>525.48</ele>
        <time>2013-09-13T15:49:38Z</time>
      </trkpt>
      <trkpt lat="46.06431" lon="3.53">
        <ele>526.54</ele>
        <time>2013-09-13T15:49:54Z</time>
      </trkpt>
      <trkpt lat="46.06484" lon="3.52925">
        <ele>526.78</ele>
        <time>2013-09-13T15:50:10Z</time>
      </trkpt>
      <trkpt lat="46.06495" lon="3.5282">
        <ele>528.53</ele>
        <time>2013-09-13T15:50:29Z</time>
      </trkpt>
      <trkpt lat="46.06454" lon="3.52732">
        <ele>528.55</ele>
        <time>2013-09-13T15:50:53Z</time>
      </trkpt>
      <trkpt lat="46.06416" lon="3.52635">
        <ele>529.92</ele>
        <time>2013-09-13T15:51:16Z</time>
      </trkpt>
      <trkpt lat="46.06398" lon="3.52532">
        <ele>531.21</ele>
        <time>2013-09-13T15:51:25Z</time>
      </trkpt>
      <trkpt lat="46.06361" lon="3.52438">
        <ele>527.39</ele>
        <time>2013-09-13T15:51:33Z</time>
      </trkpt>
      <trkpt lat="46.06317" lon="3.5235">
        <ele>523.25</ele>
        <time>2013-09-13T15:51:41Z</time>
      </trkpt>
      <trkpt lat="46.06276" lon="3.5226">
        <ele>519.47</ele>
        <time>2013-09-13T15:51:48Z</time>
      </trkpt>
      <trkpt lat="46.0623" lon="3.52159">
        <ele>518.24</ele>
        <time>2013-09-13T15:51:55Z</time>
      </trkpt>
      <trkpt lat="46.06222" lon="3.52043">
        <ele>517.39</ele>
        <time>2013-09-13T15:52:02Z</time>
      </trkpt>
      <trkpt lat="46.0622" lon="3.51934">
        <ele>509.74</ele>
        <time>2013-09-13T15:52:09Z</time>
      </trkpt>
      <trkpt lat="46.06257" lon="3.51833">
        <ele>499.06</ele>
        <time>2013-09-13T15:52:41Z</time>
      </trkpt>
      <trkpt lat="46.06255" lon="3.51719">
        <ele>494.67</ele>
        <time>2013-09-13T15:55:25Z</time>
      </trkpt>
      <trkpt lat="46.06253" lon="3.51605">
        <ele>495.43</ele>
        <time>2013-09-13T15:55:33Z</time>
      </trkpt>
      <trkpt lat="46.06261" lon="3.51502">
        <ele>496.48</ele>
        <time>2013-09-13T15:55:50Z</time>
      </trkpt>
      <trkpt lat="46.06255" lon="3.51395">
        <ele>498.42</ele>
        <time>2013-09-13T15:56:25Z</time>
      </trkpt>
      <trkpt lat="46.06255" lon="3.51286">
        <ele>499.53</ele>
        <time>2013-09-13T15:56:46Z</time>
      </trkpt>
      <trkpt lat="46.06251" lon="3.51181">
        <ele>502.75</ele>
        <time>2013-09-13T15:57:02Z</time>
      </trkpt>
      <trkpt lat="46.06287" lon="3.51086">
        <ele>503.51</ele>
        <time>2013-09-13T15:57:27Z</time>
      </trkpt>
      <trkpt lat="46.06356" lon="3.51041">
        <ele>503.55</ele>
        <time>2013-09-13T15:57:51Z</time>
      </trkpt>
      <trkpt lat="46.06417" lon="3.50977">
        <ele>506.38</ele>
        <time>2013-09-13T15:58:13Z</time>
      </trkpt>
      <trkpt lat="46.06489" lon="3.50983">
        <ele>511.4</ele>
        <time>2013-09-13T15:58:28Z</time>
      </trkpt>
      <trkpt lat="46.06536" lon="3.51063">
        <ele>513.86</ele>
        <time>2013-09-13T15:58:41Z</time>
      </trkpt>
      <trkpt lat="46.06588" lon="3.51138">
        <ele>523.13</ele>
        <time>2013-09-13T15:58:54Z</time>
      </trkpt>
      <trkpt lat="46.06629" lon="3.51223">
        <ele>528.79</ele>
        <time>2013-09-13T15:59:08Z</time>
      </trkpt>
      <trkpt lat="46.06683" lon="3.51292">
        <ele>528.34</ele>
        <time>2013-09-13T15:59:22Z</time>
      </trkpt>
      <trkpt lat="46.06729" lon="3.5138">
        <ele>518.07</ele>
        <time>2013-09-13T15:59:36Z</time>
      </trkpt>
      <trkpt lat="46.0677" lon="3.51468">
        <ele>506.36</ele>
        <time>2013-09-13T15:59:49Z</time>
      </trkpt>
      <trkpt lat="46.06842" lon="3.51494">
        <ele>496.37</ele>
        <time>2013-09-13T16:00:19Z</time>
      </trkpt>
      <trkpt lat="46.06918" lon="3.51498">
        <ele>479.14</ele>
        <time>2013-09-13T16:00:37Z</time>
      </trkpt>
      <trkpt lat="46.0699" lon="3.51535">
        <ele>466.05</ele>
        <time>2013-09-13T16:00:49Z</time>
      </trkpt>
      <trkpt lat="46.07058" lon="3.51582">
        <ele>469.94</ele>
        <time>2013-09-13T16:01:00Z</time>
      </trkpt>
      <trkpt lat="46.0711" lon="3.51659">
        <ele>470.51</ele>
        <time>2013-09-13T16:01:13Z</time>
      </trkpt>
      <trkpt lat="46.07141" lon="3.51758">
        <ele>469.07</ele>
        <time>2013-09-13T16:01:27Z</time>
      </trkpt>
      <trkpt lat="46.0722" lon="3.51756">
        <ele>434.52</ele>
        <time>2013-09-13T16:02:57Z</time>
      </trkpt>
      <trkpt lat="46.07284" lon="3.51708">
        <ele>427.16</ele>
        <time>2013-09-13T16:04:26Z</time>
      </trkpt>
      <trkpt lat="46.07355" lon="3.51732">
        <ele>431.94</ele>
        <time>2013-09-13T16:04:53Z</time>
      </trkpt>
      <trkpt lat="46.07415" lon="3.51792">
        <ele>446.12</ele>
        <time>2013-09-13T16:06:00Z</time>
      </trkpt>
      <trkpt lat="46.07456" lon="3.51878">
        <ele>457.52</ele>
        <time>2013-09-13T16:07:20Z</time>
      </trkpt>
      <trkpt lat="46.07488" lon="3.51972">
        <ele>471.41</ele>
        <time>2013-09-13T16:08:42Z</time>
      </trkpt>
      <trkpt lat="46.0756" lon="3.51985">
        <ele>487.92</ele>
        <time>2013-09-13T16:10:13Z</time>
      </trkpt>
      <trkpt lat="46.07632" lon="3.51979">
        <ele>496.35</ele>
        <time>2013-09-13T16:11:03Z</time>
      </trkpt>
      <trkpt lat="46.07704" lon="3.51968">
        <ele>502.17</ele>
        <time>2013-09-13T16:11:50Z</time>
      </trkpt>
      <trkpt lat="46.07777" lon="3.51972">
        <ele>508.07</ele>
        <time>2013-09-13T16:12:36Z</time>
      </trkpt>
      <trkpt lat="46.07849" lon="3.51979">
        <ele>512.04</ele>
        <time>2013-09-13T16:13:00Z</time>
      </trkpt>
      <trkpt lat="46.07922" lon="3.51983">
        <ele>516.04</ele>
        <time>2013-09-13T16:13:26Z</time>
      </trkpt>
      <trkpt lat="46.07995" lon="3.51996">
        <ele>517.55</ele>
        <time>2013-09-13T16:13:51Z</time>
      </trkpt>
      <trkpt lat="46.08069" lon="3.51996">
        <ele>519.78</ele>
        <time>2013-09-13T16:14:15Z</time>
      </trkpt>
      <trkpt lat="46.08143" lon="3.51981">
        <ele>524.46</ele>
        <time>2013-09-13T16:14:38Z</time>
      </trkpt>
      <trkpt lat="46.08208" lon="3.51934">
        <ele>525.83</ele>
        <time>2013-09-13T16:14:54Z</time>
      </trkpt>
      <trkpt lat="46.08275" lon="3.51878">
        <ele>522.71</ele>
        <time>2013-09-13T16:15:04Z</time>
      </trkpt>
      <trkpt lat="46.08341" lon="3.5182">
        <ele>528.47</ele>
        <time>2013-09-13T16:15:14Z</time>
      </trkpt>
      <trkpt lat="46.084" lon="3.51747">
        <ele>527.62</ele>
        <time>2013-09-13T16:15:25Z</time>
      </trkpt>
      <trkpt lat="46.08455" lon="3.51674">
        <ele>524.5</ele>
        <time>2013-09-13T16:15:36Z</time>
      </trkpt>
      <trkpt lat="46.0851" lon="3.51599">
        <ele>524.14</ele>
        <time>2013-09-13T16:15:48Z</time>
      </trkpt>
      <trkpt lat="46.08565" lon="3.5153">
        <ele>523.67</ele>
        <time>2013-09-13T16:16:00Z</time>
      </trkpt>
      <trkpt lat="46.08616" lon="3.51451">
        <ele>521.46</ele>
        <time>2013-09-13T16:16:10Z</time>
      </trkpt>
      <trkpt lat="46.0867" lon="3.51376">
        <ele>517.85</ele>
        <time>2013-09-13T16:16:21Z</time>
      </trkpt>
      <trkpt lat="46.08722" lon="3.51292">
        <ele>516.7</ele>
        <time>2013-09-13T16:16:34Z</time>
      </trkpt>
      <trkpt lat="46.08783" lon="3.51226">
        <ele>515.9</ele>
        <time>2013-09-13T16:16:46Z</time>
      </trkpt>
      <trkpt lat="46.08848" lon="3.51178">
        <ele>514.08</ele>
        <time>2013-09-13T16:16:57Z</time>
      </trkpt>
      <trkpt lat="46.08919" lon="3.51202">
        <ele>501.26</ele>
        <time>2013-09-13T16:17:10Z</time>
      </trkpt>
      <trkpt lat="46.08995" lon="3.51223">
        <ele>494.9</ele>
        <time>2013-09-13T16:17:24Z</time>
      </trkpt>
      <trkpt lat="46.0907" lon="3.51223">
        <ele>488.03</ele>
        <time>2013-09-13T16:17:34Z</time>
      </trkpt>
      <trkpt lat="46.09046" lon="3.51123">
        <ele>486.43</ele>
        <time>2013-09-13T16:18:05Z</time>
      </trkpt>
      <trkpt lat="46.09009" lon="3.51024">
        <ele>487.55</ele>
        <time>2013-09-13T16:18:37Z</time>
      </trkpt>
      <trkpt lat="46.09066" lon="3.50955">
        <ele>483.16</ele>
        <time>2013-09-13T16:18:54Z</time>
      </trkpt>
      <trkpt lat="46.09114" lon="3.50874">
        <ele>470.38</ele>
        <time>2013-09-13T16:19:09Z</time>
      </trkpt>
      <trkpt lat="46.09154" lon="3.50786">
        <ele>471.06</ele>
        <time>2013-09-13T16:19:19Z</time>
      </trkpt>
      <trkpt lat="46.0921" lon="3.50704">
        <ele>467.39</ele>
        <time>2013-09-13T16:19:29Z</time>
      </trkpt>
      <trkpt lat="46.0926" lon="3.50627">
        <ele>463.32</ele>
        <time>2013-09-13T16:19:41Z</time>
      </trkpt>
      <trkpt lat="46.09306" lon="3.50543">
        <ele>462.14</ele>
        <time>2013-09-13T16:20:13Z</time>
      </trkpt>
      <trkpt lat="46.09341" lon="3.50438">
        <ele>461.32</ele>
        <time>2013-09-13T16:20:42Z</time>
      </trkpt>
      <trkpt lat="46.09352" lon="3.50333">
        <ele>458.97</ele>
        <time>2013-09-13T16:21:21Z</time>
      </trkpt>
      <trkpt lat="46.09356" lon="3.50226">
        <ele>458.55</ele>
        <time>2013-09-13T16:21:46Z</time>
      </trkpt>
      <trkpt lat="46.09383" lon="3.50127">
        <ele>460.91</ele>
        <time>2013-09-13T16:22:18Z</time>
      </trkpt>
      <trkpt lat="46.09421" lon="3.50033">
        <ele>463.41</ele>
        <time>2013-09-13T16:22:52Z</time>
      </trkpt>
      <trkpt lat="46.09456" lon="3.4993">
        <ele>466.39</ele>
        <time>2013-09-13T16:23:13Z</time>
      </trkpt>
      <trkpt lat="46.09436" lon="3.49827">
        <ele>467.72</ele>
        <time>2013-09-13T16:23:26Z</time>
      </trkpt>
      <trkpt lat="46.09426" lon="3.49724">
        <ele>466.88</ele>
        <time>2013-09-13T16:23:41Z</time>
      </trkpt>
      <trkpt lat="46.09417" lon="3.49616">
        <ele>464.54</ele>
        <time>2013-09-13T16:23:55Z</time>
      </trkpt>
      <trkpt lat="46.09422" lon="3.49507">
        <ele>458.38</ele>
        <time>2013-09-13T16:24:10Z</time>
      </trkpt>
      <trkpt lat="46.09453" lon="3.49412">
        <ele>452.5</ele>
        <time>2013-09-13T16:24:23Z</time>
      </trkpt>
      <trkpt lat="46.09489" lon="3.49318">
        <ele>451.24</ele>
        <time>2013-09-13T16:24:48Z</time>
      </trkpt>
      <trkpt lat="46.09525" lon="3.49219">
        <ele>448.71</ele>
        <time>2013-09-13T16:25:04Z</time>
      </trkpt>
      <trkpt lat="46.09558" lon="3.49125">
        <ele>446.59</ele>
        <time>2013-09-13T16:25:15Z</time>
      </trkpt>
      <trkpt lat="46.09588" lon="3.4902">
        <ele>444.37</ele>
        <time>2013-09-13T16:25:27Z</time>
      </trkpt>
      <trkpt lat="46.09614" lon="3.48919">
        <ele>440</ele>
        <time>2013-09-13T16:25:39Z</time>
      </trkpt>
      <trkpt lat="46.09657" lon="3.48833">
        <ele>439.25</ele>
        <time>2013-09-13T16:25:50Z</time>
      </trkpt>
      <trkpt lat="46.09694" lon="3.48732">
        <ele>438.96</ele>
        <time>2013-09-13T16:25:59Z</time>
      </trkpt>
      <trkpt lat="46.09725" lon="3.48631">
        <ele>435.22</ele>
        <time>2013-09-13T16:26:06Z</time>
      </trkpt>
      <trkpt lat="46.0977" lon="3.48548">
        <ele>430.5</ele>
        <time>2013-09-13T16:26:13Z</time>
      </trkpt>
      <trkpt lat="46.09824" lon="3.4847">
        <ele>421.8</ele>
        <time>2013-09-13T16:26:26Z</time>
      </trkpt>
      <trkpt lat="46.09876" lon="3.48397">
        <ele>412</ele>
        <time>2013-09-13T16:26:42Z</time>
      </trkpt>
      <trkpt lat="46.09922" lon="3.4831">
        <ele>403.67</ele>
        <time>2013-09-13T16:27:03Z</time>
      </trkpt>
      <trkpt lat="46.09993" lon="3.48256">
        <ele>389.8</ele>
        <time>2013-09-13T16:28:55Z</time>
      </trkpt>
      <trkpt lat="46.10062" lon="3.48196">
        <ele>380.05</ele>
        <time>2013-09-13T16:29:09Z</time>
      </trkpt>
      <trkpt lat="46.10039" lon="3.48097">
        <ele>366.56</ele>
        <time>2013-09-13T16:30:29Z</time>
      </trkpt>
      <trkpt lat="46.1001" lon="3.48001">
        <ele>372.05</ele>
        <time>2013-09-13T16:31:23Z</time>
      </trkpt>
      <trkpt lat="46.09996" lon="3.47898">
        <ele>377.4</ele>
        <time>2013-09-13T16:31:59Z</time>
      </trkpt>
      <trkpt lat="46.09969" lon="3.47801">
        <ele>382.35</ele>
        <time>2013-09-13T16:32:35Z</time>
      </trkpt>
      <trkpt lat="46.09953" lon="3.47698">
        <ele>387.55</ele>
        <time>2013-09-13T16:33:10Z</time>
      </trkpt>
      <trkpt lat="46.09935" lon="3.47597">
        <ele>390.19</ele>
        <time>2013-09-13T16:33:45Z</time>
      </trkpt>
      <trkpt lat="46.10008" lon="3.4758">
        <ele>392.49</ele>
        <time>2013-09-13T16:34:15Z</time>
      </trkpt>
      <trkpt lat="46.10079" lon="3.47546">
        <ele>393.54</ele>
        <time>2013-09-13T16:34:36Z</time>
      </trkpt>
      <trkpt lat="46.10118" lon="3.47453">
        <ele>396.52</ele>
        <time>2013-09-13T16:35:00Z</time>
      </trkpt>
      <trkpt lat="46.10144" lon="3.47355">
        <ele>397.55</ele>
        <time>2013-09-13T16:35:26Z</time>
      </trkpt>
      <trkpt lat="46.10182" lon="3.47265">
        <ele>396.58</ele>
        <time>2013-09-13T16:35:50Z</time>
      </trkpt>
      <trkpt lat="46.10224" lon="3.47177">
        <ele>395.56</ele>
        <time>2013-09-13T16:36:19Z</time>
      </trkpt>
      <trkpt lat="46.10277" lon="3.47106">
        <ele>394.55</ele>
        <time>2013-09-13T16:36:47Z</time>
      </trkpt>
      <trkpt lat="46.10318" lon="3.4702">
        <ele>391.56</ele>
        <time>2013-09-13T16:37:44Z</time>
      </trkpt>
      <trkpt lat="46.10354" lon="3.46928">
        <ele>395.45</ele>
        <time>2013-09-13T16:38:55Z</time>
      </trkpt>
      <trkpt lat="46.10423" lon="3.469">
        <ele>396.55</ele>
        <time>2013-09-13T16:39:15Z</time>
      </trkpt>
      <trkpt lat="46.10494" lon="3.46865">
        <ele>397.45</ele>
        <time>2013-09-13T16:39:41Z</time>
      </trkpt>
      <trkpt lat="46.10562" lon="3.46823">
        <ele>404.23</ele>
        <time>2013-09-13T16:40:01Z</time>
      </trkpt>
      <trkpt lat="46.10631" lon="3.46782">
        <ele>409.67</ele>
        <time>2013-09-13T16:40:24Z</time>
      </trkpt>
      <trkpt lat="46.107" lon="3.46743">
        <ele>416.11</ele>
        <time>2013-09-13T16:40:37Z</time>
      </trkpt>
      <trkpt lat="46.10745" lon="3.46659">
        <ele>416.55</ele>
        <time>2013-09-13T16:40:56Z</time>
      </trkpt>
      <trkpt lat="46.10774" lon="3.46563">
        <ele>415.58</ele>
        <time>2013-09-13T16:41:18Z</time>
      </trkpt>
      <trkpt lat="46.10828" lon="3.46486">
        <ele>417.32</ele>
        <time>2013-09-13T16:41:46Z</time>
      </trkpt>
      <trkpt lat="46.10903" lon="3.46462">
        <ele>416.29</ele>
        <time>2013-09-13T16:42:00Z</time>
      </trkpt>
      <trkpt lat="46.10978" lon="3.46449">
        <ele>412.82</ele>
        <time>2013-09-13T16:42:09Z</time>
      </trkpt>
      <trkpt lat="46.11052" lon="3.46447">
        <ele>407.01</ele>
        <time>2013-09-13T16:42:19Z</time>
      </trkpt>
      <trkpt lat="46.11125" lon="3.46458">
        <ele>403.15</ele>
        <time>2013-09-13T16:42:36Z</time>
      </trkpt>
      <trkpt lat="46.11199" lon="3.46458">
        <ele>404.54</ele>
        <time>2013-09-13T16:43:00Z</time>
      </trkpt>
      <trkpt lat="46.11274" lon="3.46456">
        <ele>407.47</ele>
        <time>2013-09-13T16:43:18Z</time>
      </trkpt>
      <trkpt lat="46.11347" lon="3.4646">
        <ele>408.85</ele>
        <time>2013-09-13T16:43:34Z</time>
      </trkpt>
      <trkpt lat="46.11417" lon="3.46505">
        <ele>404.88</ele>
        <time>2013-09-13T16:43:52Z</time>
      </trkpt>
      <trkpt lat="46.11487" lon="3.46479">
        <ele>401.59</ele>
        <time>2013-09-13T16:44:10Z</time>
      </trkpt>
      <trkpt lat="46.11544" lon="3.46411">
        <ele>402.55</ele>
        <time>2013-09-13T16:44:32Z</time>
      </trkpt>
      <trkpt lat="46.11607" lon="3.46353">
        <ele>400.12</ele>
        <time>2013-09-13T16:44:53Z</time>
      </trkpt>
      <trkpt lat="46.11679" lon="3.46335">
        <ele>396.9</ele>
        <time>2013-09-13T16:45:06Z</time>
      </trkpt>
      <trkpt lat="46.11735" lon="3.46402">
        <ele>379.56</ele>
        <time>2013-09-13T16:45:26Z</time>
      </trkpt>
      <trkpt lat="46.11718" lon="3.46509">
        <ele>373.03</ele>
        <time>2013-09-13T16:45:35Z</time>
      </trkpt>
      <trkpt lat="46.11701" lon="3.46617">
        <ele>368.73</ele>
        <time>2013-09-13T16:45:43Z</time>
      </trkpt>
      <trkpt lat="46.11768" lon="3.46666">
        <ele>367.64</ele>
        <time>2013-09-13T16:45:52Z</time>
      </trkpt>
      <trkpt lat="46.11846" lon="3.46677">
        <ele>367.31</ele>
        <time>2013-09-13T16:46:00Z</time>
      </trkpt>
      <trkpt lat="46.11921" lon="3.4667">
        <ele>364.3</ele>
        <time>2013-09-13T16:46:08Z</time>
      </trkpt>
      <trkpt lat="46.11989" lon="3.46634">
        <ele>361.79</ele>
        <time>2013-09-13T16:46:16Z</time>
      </trkpt>
      <trkpt lat="46.12059" lon="3.46601">
        <ele>355.63</ele>
        <time>2013-09-13T16:46:24Z</time>
      </trkpt>
      <trkpt lat="46.12135" lon="3.46563">
        <ele>353.76</ele>
        <time>2013-09-13T16:46:32Z</time>
      </trkpt>
      <trkpt lat="46.12206" lon="3.46524">
        <ele>351.82</ele>
        <time>2013-09-13T16:46:40Z</time>
      </trkpt>
      <trkpt lat="46.12284" lon="3.46503">
        <ele>348.73</ele>
        <time>2013-09-13T16:46:48Z</time>
      </trkpt>
      <trkpt lat="46.12358" lon="3.46522">
        <ele>341.58</ele>
        <time>2013-09-13T16:46:55Z</time>
      </trkpt>
      <trkpt lat="46.12429" lon="3.4655">
        <ele>334.56</ele>
        <time>2013-09-13T16:47:02Z</time>
      </trkpt>
      <trkpt lat="46.12496" lon="3.46595">
        <ele>328.14</ele>
        <time>2013-09-13T16:47:10Z</time>
      </trkpt>
      <trkpt lat="46.12559" lon="3.46668">
        <ele>322.39</ele>
        <time>2013-09-13T16:47:19Z</time>
      </trkpt>
      <trkpt lat="46.12639" lon="3.46657">
        <ele>319.82</ele>
        <time>2013-09-13T16:47:28Z</time>
      </trkpt>
      <trkpt lat="46.12689" lon="3.46569">
        <ele>317.99</ele>
        <time>2013-09-13T16:47:36Z</time>
      </trkpt>
      <trkpt lat="46.12725" lon="3.46464">
        <ele>312.87</ele>
        <time>2013-09-13T16:47:44Z</time>
      </trkpt>
      <trkpt lat="46.12764" lon="3.46368">
        <ele>306.17</ele>
        <time>2013-09-13T16:47:52Z</time>
      </trkpt>
      <trkpt lat="46.12841" lon="3.46323">
        <ele>302.42</ele>
        <time>2013-09-13T16:48:00Z</time>
      </trkpt>
      <trkpt lat="46.12903" lon="3.4625">
        <ele>301.64</ele>
        <time>2013-09-13T16:48:08Z</time>
      </trkpt>
      <trkpt lat="46.12927" lon="3.46149">
        <ele>296.48</ele>
        <time>2013-09-13T16:48:17Z</time>
      </trkpt>
      <trkpt lat="46.12944" lon="3.46041">
        <ele>290.41</ele>
        <time>2013-09-13T16:48:27Z</time>
      </trkpt>
      <trkpt lat="46.13012" lon="3.46003">
        <ele>287.18</ele>
        <time>2013-09-13T16:48:43Z</time>
      </trkpt>
      <trkpt lat="46.13084" lon="3.46024">
        <ele>285.59</ele>
        <time>2013-09-13T16:49:00Z</time>
      </trkpt>
      <trkpt lat="46.13098" lon="3.45921">
        <ele>282.63</ele>
        <time>2013-09-13T16:49:18Z</time>
      </trkpt>
      <trkpt lat="46.13174" lon="3.45919">
        <ele>280.73</ele>
        <time>2013-09-13T16:49:43Z</time>
      </trkpt>
      <trkpt lat="46.13248" lon="3.45938">
        <ele>281.5</ele>
        <time>2013-09-13T16:49:59Z</time>
      </trkpt>
      <trkpt lat="46.13321" lon="3.45938">
        <ele>284.99</ele>
        <time>2013-09-13T16:50:16Z</time>
      </trkpt>
      <trkpt lat="46.13372" lon="3.45859">
        <ele>281</ele>
        <time>2013-09-13T16:50:41Z</time>
      </trkpt>
      <trkpt lat="46.13415" lon="3.45775">
        <ele>279.11</ele>
        <time>2013-09-13T16:51:00Z</time>
      </trkpt>
      <trkpt lat="46.13455" lon="3.4569">
        <ele>278.55</ele>
        <time>2013-09-13T16:51:23Z</time>
      </trkpt>
      <trkpt lat="46.13499" lon="3.45597">
        <ele>278.55</ele>
        <time>2013-09-13T16:51:56Z</time>
      </trkpt>
      <trkpt lat="46.1357" lon="3.45569">
        <ele>278.55</ele>
        <time>2013-09-13T16:52:18Z</time>
      </trkpt>
      <trkpt lat="46.13636" lon="3.45524">
        <ele>275.56</ele>
        <time>2013-09-13T16:52:40Z</time>
      </trkpt>
      <trkpt lat="46.13661" lon="3.45421">
        <ele>274.87</ele>
        <time>2013-09-13T16:52:59Z</time>
      </trkpt>
      <trkpt lat="46.13711" lon="3.4534">
        <ele>273.56</ele>
        <time>2013-09-13T16:53:18Z</time>
      </trkpt>
      <trkpt lat="46.13776" lon="3.45393">
        <ele>273.78</ele>
        <time>2013-09-13T16:53:37Z</time>
      </trkpt>
      <trkpt lat="46.1384" lon="3.45344">
        <ele>274.55</ele>
        <time>2013-09-13T16:54:22Z</time>
      </trkpt>
      <trkpt lat="46.13852" lon="3.45239">
        <ele>276.48</ele>
        <time>2013-09-13T16:54:42Z</time>
      </trkpt>
      <trkpt lat="46.13864" lon="3.45136">
        <ele>277.54</ele>
        <time>2013-09-13T16:54:58Z</time>
      </trkpt>
      <trkpt lat="46.13873" lon="3.45033">
        <ele>277.55</ele>
        <time>2013-09-13T16:55:15Z</time>
      </trkpt>
      <trkpt lat="46.1392" lon="3.44954">
        <ele>277.55</ele>
        <time>2013-09-13T16:55:39Z</time>
      </trkpt>
      <trkpt lat="46.13993" lon="3.44964">
        <ele>273.11</ele>
        <time>2013-09-13T16:55:56Z</time>
      </trkpt>
      <trkpt lat="46.14065" lon="3.44951">
        <ele>271.56</ele>
        <time>2013-09-13T16:56:15Z</time>
      </trkpt>
      <trkpt lat="46.14138" lon="3.44936">
        <ele>273.52</ele>
        <time>2013-09-13T16:56:37Z</time>
      </trkpt>
      <trkpt lat="46.14211" lon="3.44928">
        <ele>278.84</ele>
        <time>2013-09-13T16:57:20Z</time>
      </trkpt>
      <trkpt lat="46.14286" lon="3.44934">
        <ele>283.41</ele>
        <time>2013-09-13T16:57:40Z</time>
      </trkpt>
      <trkpt lat="46.14352" lon="3.44889">
        <ele>284.53</ele>
        <time>2013-09-13T16:58:10Z</time>
      </trkpt>
      <trkpt lat="46.14381" lon="3.4479">
        <ele>288.09</ele>
        <time>2013-09-13T16:58:39Z</time>
      </trkpt>
      <trkpt lat="46.14428" lon="3.44711">
        <ele>292.08</ele>
        <time>2013-09-13T16:59:10Z</time>
      </trkpt>
      <trkpt lat="46.14498" lon="3.44681">
        <ele>295.31</ele>
        <time>2013-09-13T16:59:42Z</time>
      </trkpt>
      <trkpt lat="46.14554" lon="3.44612">
        <ele>300.26</ele>
        <time>2013-09-13T17:00:16Z</time>
      </trkpt>
      <trkpt lat="46.14606" lon="3.44539">
        <ele>309.24</ele>
        <time>2013-09-13T17:00:34Z</time>
      </trkpt>
      <trkpt lat="46.14657" lon="3.44462">
        <ele>310.04</ele>
        <time>2013-09-13T17:00:51Z</time>
      </trkpt>
      <trkpt lat="46.14704" lon="3.44378">
        <ele>309.56</ele>
        <time>2013-09-13T17:01:07Z</time>
      </trkpt>
      <trkpt lat="46.14751" lon="3.44299">
        <ele>308.58</ele>
        <time>2013-09-13T17:01:23Z</time>
      </trkpt>
      <trkpt lat="46.14811" lon="3.44239">
        <ele>308.55</ele>
        <time>2013-09-13T17:01:44Z</time>
      </trkpt>
      <trkpt lat="46.14873" lon="3.44172">
        <ele>314.39</ele>
        <time>2013-09-13T17:02:04Z</time>
      </trkpt>
      <trkpt lat="46.1494" lon="3.44134">
        <ele>320.35</ele>
        <time>2013-09-13T17:02:22Z</time>
      </trkpt>
      <trkpt lat="46.15011" lon="3.44108">
        <ele>317.73</ele>
        <time>2013-09-13T17:02:41Z</time>
      </trkpt>
      <trkpt lat="46.15083" lon="3.44076">
        <ele>315.79</ele>
        <time>2013-09-13T17:03:02Z</time>
      </trkpt>
      <trkpt lat="46.15149" lon="3.44024">
        <ele>314.63</ele>
        <time>2013-09-13T17:03:16Z</time>
      </trkpt>
      <trkpt lat="46.15224" lon="3.44027">
        <ele>314.67</ele>
        <time>2013-09-13T17:03:32Z</time>
      </trkpt>
      <trkpt lat="46.15296" lon="3.44033">
        <ele>314.55</ele>
        <time>2013-09-13T17:03:55Z</time>
      </trkpt>
      <trkpt lat="46.1537" lon="3.44039">
        <ele>315.86</ele>
        <time>2013-09-13T17:04:24Z</time>
      </trkpt>
      <trkpt lat="46.15444" lon="3.43997">
        <ele>321.51</ele>
        <time>2013-09-13T17:05:00Z</time>
      </trkpt>
      <trkpt lat="46.15515" lon="3.43966">
        <ele>327.65</ele>
        <time>2013-09-13T17:05:37Z</time>
      </trkpt>
      <trkpt lat="46.15588" lon="3.43977">
        <ele>331.28</ele>
        <time>2013-09-13T17:06:01Z</time>
      </trkpt>
      <trkpt lat="46.1566" lon="3.43992">
        <ele>334.41</ele>
        <time>2013-09-13T17:06:26Z</time>
      </trkpt>
      <trkpt lat="46.1573" lon="3.44024">
        <ele>336.48</ele>
        <time>2013-09-13T17:06:57Z</time>
      </trkpt>
      <trkpt lat="46.15798" lon="3.44059">
        <ele>342.13</ele>
        <time>2013-09-13T17:07:29Z</time>
      </trkpt>
      <trkpt lat="46.15871" lon="3.44054">
        <ele>345.11</ele>
        <time>2013-09-13T17:07:56Z</time>
      </trkpt>
      <trkpt lat="46.1591" lon="3.43966">
        <ele>355.86</ele>
        <time>2013-09-13T17:09:13Z</time>
      </trkpt>
      <trkpt lat="46.15936" lon="3.43868">
        <ele>369.57</ele>
        <time>2013-09-13T17:10:24Z</time>
      </trkpt>
      <trkpt lat="46.15973" lon="3.43778">
        <ele>376.24</ele>
        <time>2013-09-13T17:11:04Z</time>
      </trkpt>
      <trkpt lat="46.16036" lon="3.43724">
        <ele>381.34</ele>
        <time>2013-09-13T17:11:33Z</time>
      </trkpt>
      <trkpt lat="46.16103" lon="3.43681">
        <ele>388.87</ele>
        <time>2013-09-13T17:11:51Z</time>
      </trkpt>
      <trkpt lat="46.1618" lon="3.43685">
        <ele>386.84</ele>
        <time>2013-09-13T17:12:02Z</time>
      </trkpt>
      <trkpt lat="46.16254" lon="3.43685">
        <ele>382.97</ele>
        <time>2013-09-13T17:12:11Z</time>
      </trkpt>
      <trkpt lat="46.16325" lon="3.43636">
        <ele>377.19</ele>
        <time>2013-09-13T17:12:21Z</time>
      </trkpt>
      <trkpt lat="46.16387" lon="3.4357">
        <ele>370.78</ele>
        <time>2013-09-13T17:12:30Z</time>
      </trkpt>
      <trkpt lat="46.16464" lon="3.4357">
        <ele>362.95</ele>
        <time>2013-09-13T17:12:41Z</time>
      </trkpt>
      <trkpt lat="46.16538" lon="3.43587">
        <ele>353.64</ele>
        <time>2013-09-13T17:12:55Z</time>
      </trkpt>
      <trkpt lat="46.16612" lon="3.43587">
        <ele>347.91</ele>
        <time>2013-09-13T17:13:09Z</time>
      </trkpt>
      <trkpt lat="46.16687" lon="3.43572">
        <ele>346.96</ele>
        <time>2013-09-13T17:13:20Z</time>
      </trkpt>
      <trkpt lat="46.16757" lon="3.436">
        <ele>344.88</ele>
        <time>2013-09-13T17:13:31Z</time>
      </trkpt>
      <trkpt lat="46.16831" lon="3.43608">
        <ele>343.98</ele>
        <time>2013-09-13T17:13:46Z</time>
      </trkpt>
      <trkpt lat="46.16893" lon="3.43542">
        <ele>340.6</ele>
        <time>2013-09-13T17:13:58Z</time>
      </trkpt>
      <trkpt lat="46.16973" lon="3.43539">
        <ele>337.17</ele>
        <time>2013-09-13T17:14:06Z</time>
      </trkpt>
      <trkpt lat="46.17041" lon="3.43604">
        <ele>328.56</ele>
        <time>2013-09-13T17:14:13Z</time>
      </trkpt>
      <trkpt lat="46.17107" lon="3.43647">
        <ele>319.97</ele>
        <time>2013-09-13T17:14:20Z</time>
      </trkpt>
      <trkpt lat="46.17177" lon="3.43619">
        <ele>316.75</ele>
        <time>2013-09-13T17:14:30Z</time>
      </trkpt>
      <trkpt lat="46.17246" lon="3.43563">
        <ele>315.8</ele>
        <time>2013-09-13T17:14:41Z</time>
      </trkpt>
      <trkpt lat="46.17233" lon="3.4346">
        <ele>317.55</ele>
        <time>2013-09-13T17:15:08Z</time>
      </trkpt>
      <trkpt lat="46.17205" lon="3.43364">
        <ele>319.42</ele>
        <time>2013-09-13T17:15:37Z</time>
      </trkpt>
      <trkpt lat="46.17214" lon="3.43258">
        <ele>323.46</ele>
        <time>2013-09-13T17:16:02Z</time>
      </trkpt>
      <trkpt lat="46.1715" lon="3.43205">
        <ele>328.21</ele>
        <time>2013-09-13T17:16:16Z</time>
      </trkpt>
      <trkpt lat="46.17085" lon="3.43158">
        <ele>328.4</ele>
        <time>2013-09-13T17:16:27Z</time>
      </trkpt>
    </trkseg>
  </trk>
</gpx>